Observation data for Crane on 06/25/2019      Previous  Date  Next       Current Mesonet Observations  Soil Data  Daily Summary Page  Observations in Plain Language
KCR2 250500Z 20020KT 23/16 A2994 RMK A01 T02340164  RH  065%=      5-min Rain = 0
KCR2 250501Z 19020KT 23/16 A2994 RMK A01 T02330162  RH  064%=      5-min Rain = 0
KCR2 250502Z 19020KT 23/16 A2994 RMK A01 T02330162  RH  064%=      5-min Rain = 0
KCR2 250503Z 19020KT 23/16 A2993 RMK A01 T02330161  RH  064%=      5-min Rain = 0
KCR2 250504Z 19022KT 23/16 A2993 RMK A01 T02330162  RH  064%=      5-min Rain = 0
KCR2 250505Z 18022KT 23/16 A2993 RMK A01 T02320163  RH  065%=      5-min Rain = 0
KCR2 250506Z 19021KT 23/16 A2993 RMK A01 T02300164  RH  066%=      5-min Rain = 0
KCR2 250507Z 18018KT 23/16 A2993 RMK A01 T02290162  RH  066%=      5-min Rain = 0
KCR2 250508Z 19015KT 23/17 A2993 RMK A01 T02290166  RH  067%=      5-min Rain = 0
KCR2 250509Z 19016KT 23/16 A2993 RMK A01 T02280164  RH  067%=      5-min Rain = 0
KCR2 250510Z 18017KT 23/16 A2993 RMK A01 T02280164  RH  067%=      5-min Rain = 0
KCR2 250511Z 19019KT 23/16 A2993 RMK A01 T02280160  RH  065%=      5-min Rain = 0
KCR2 250512Z 19017KT 23/16 A2993 RMK A01 T02300158  RH  064%=      5-min Rain = 0
KCR2 250513Z 19015KT 23/16 A2993 RMK A01 T02310160  RH  064%=      5-min Rain = 0
KCR2 250514Z 19013KT 23/16 A2993 RMK A01 T02310160  RH  064%=      5-min Rain = 0
KCR2 250515Z 19012KT 23/16 A2993 RMK A01 T02300159  RH  064%=      5-min Rain = 0
KCR2 250516Z 19013KT 23/16 A2993 RMK A01 T02300159  RH  064%=      5-min Rain = 0
KCR2 250517Z 18013KT 23/16 A2993 RMK A01 T02300159  RH  064%=      5-min Rain = 0
KCR2 250518Z 18011KT 23/16 A2993 RMK A01 T02300160  RH  065%=      5-min Rain = 0
KCR2 250519Z 18010KT 23/16 A2993 RMK A01 T02290160  RH  065%=      5-min Rain = 0
KCR2 250520Z 19013KT 23/16 A2993 RMK A01 T02290158  RH  064%=      5-min Rain = 0
KCR2 250521Z 19011KT 23/16 A2993 RMK A01 T02300157  RH  064%=      5-min Rain = 0
KCR2 250522Z 19010KT 23/16 A2993 RMK A01 T02300158  RH  064%=      5-min Rain = 0
KCR2 250523Z 20011KT 23/16 A2993 RMK A01 T02300158  RH  064%=      5-min Rain = 0
KCR2 250524Z 20011G16KT 23/16 A2993 RMK A01 T02290156  RH  063%=      5-min Rain = 0
KCR2 250525Z 19012KT 23/16 A2993 RMK A01 T02300156  RH  063%=      5-min Rain = 0
KCR2 250526Z 19011KT 23/16 A2993 RMK A01 T02290155  RH  063%=      5-min Rain = 0
KCR2 250527Z 20012KT 23/15 A2993 RMK A01 T02290154  RH  063%=      5-min Rain = 0
KCR2 250528Z 20012KT 23/15 A2993 RMK A01 T02290153  RH  062%=      5-min Rain = 0
KCR2 250529Z 19010KT 23/15 A2993 RMK A01 T02290154  RH  063%=      5-min Rain = 0
KCR2 250530Z 19009KT 23/16 A2993 RMK A01 T02290157  RH  064%=      5-min Rain = 0
KCR2 250531Z 19011KT 23/16 A2993 RMK A01 T02280156  RH  064%=      5-min Rain = 0
KCR2 250532Z 19010KT 23/15 A2993 RMK A01 T02280153  RH  063%=      5-min Rain = 0
KCR2 250533Z 19010KT 23/15 A2993 RMK A01 T02280153  RH  063%=      5-min Rain = 0
KCR2 250534Z 19010KT 23/15 A2993 RMK A01 T02280152  RH  062%=      5-min Rain = 0
KCR2 250535Z 19010KT 23/15 A2993 RMK A01 T02280152  RH  062%=      5-min Rain = 0
KCR2 250536Z 19009KT 23/15 A2993 RMK A01 T02290153  RH  062%=      5-min Rain = 0
KCR2 250537Z 19010KT 23/15 A2993 RMK A01 T02290151  RH  062%=      5-min Rain = 0
KCR2 250538Z 20009KT 23/15 A2993 RMK A01 T02280152  RH  062%=      5-min Rain = 0
KCR2 250539Z 21010KT 23/15 A2992 RMK A01 T02280150  RH  062%=      5-min Rain = 0
KCR2 250540Z 21011KT 23/15 A2992 RMK A01 T02280148  RH  061%=      5-min Rain = 0
KCR2 250541Z 21011KT 23/15 A2992 RMK A01 T02280147  RH  061%=      5-min Rain = 0
KCR2 250542Z 21015KT 23/15 A2992 RMK A01 T02280145  RH  060%=      5-min Rain = 0
KCR2 250543Z 20014KT 23/14 A2992 RMK A01 T02280144  RH  059%=      5-min Rain = 0
KCR2 250544Z 21012KT 23/14 A2992 RMK A01 T02280143  RH  059%=      5-min Rain = 0
KCR2 250545Z 21011KT 23/14 A2992 RMK A01 T02290143  RH  058%=      5-min Rain = 0
KCR2 250546Z 20012KT 23/14 A2992 RMK A01 T02280142  RH  058%=      5-min Rain = 0
KCR2 250547Z 20011KT 23/14 A2992 RMK A01 T02280142  RH  058%=      5-min Rain = 0
KCR2 250548Z 20014KT 23/14 A2992 RMK A01 T02280140  RH  057%=      5-min Rain = 0
KCR2 250549Z 20012KT 23/14 A2992 RMK A01 T02280141  RH  058%=      5-min Rain = 0
KCR2 250550Z 20013KT 23/14 A2992 RMK A01 T02280140  RH  057%=      5-min Rain = 0
KCR2 250551Z 21014KT 23/14 A2992 RMK A01 T02290140  RH  057%=      5-min Rain = 0
KCR2 250552Z 21012G17KT 23/14 A2992 RMK A01 T02290139  RH  057%=      5-min Rain = 0
KCR2 250553Z 20015KT 23/14 A2992 RMK A01 T02290140  RH  057%=      5-min Rain = 0
KCR2 250554Z 20015KT 23/14 A2992 RMK A01 T02290140  RH  057%=      5-min Rain = 0
KCR2 250555Z 20014KT 23/14 A2992 RMK A01 T02290141  RH  057%=      5-min Rain = 0
KCR2 250556Z 20013KT 23/14 A2992 RMK A01 T02290142  RH  058%=      5-min Rain = 0
KCR2 250557Z 20017KT 23/14 A2992 RMK A01 T02280142  RH  058%=      5-min Rain = 0
KCR2 250558Z 20014KT 23/14 A2992 RMK A01 T02280143  RH  059%=      5-min Rain = 0
KCR2 250559Z 20017KT 23/14 A2992 RMK A01 T02270143  RH  059%=      5-min Rain = 0
KCR2 250600Z 19015KT 23/14 A2992 RMK A01 T02270144  RH  059%=      5-min Rain = 0
KCR2 250601Z 19011KT 23/15 A2992 RMK A01 T02270145  RH  060%=      5-min Rain = 0
KCR2 250602Z 20016KT 23/15 A2993 RMK A01 T02260145  RH  060%=      5-min Rain = 0
KCR2 250603Z 19016KT 23/15 A2992 RMK A01 T02260146  RH  061%=      5-min Rain = 0
KCR2 250604Z 20017KT 23/15 A2992 RMK A01 T02260146  RH  061%=      5-min Rain = 0
KCR2 250605Z 19016G21KT 23/15 A2993 RMK A01 T02260147  RH  061%=      5-min Rain = 0
KCR2 250606Z 19016KT 23/15 A2993 RMK A01 T02250147  RH  061%=      5-min Rain = 0
KCR2 250607Z 20016KT 23/15 A2993 RMK A01 T02250148  RH  061%=      5-min Rain = 0
KCR2 250608Z 20015KT 23/15 A2993 RMK A01 T02250147  RH  062%=      5-min Rain = 0
KCR2 250609Z 20013KT 23/15 A2993 RMK A01 T02250147  RH  061%=      5-min Rain = 0
KCR2 250610Z 20012KT 22/15 A2993 RMK A01 T02240147  RH  062%=      5-min Rain = 0
KCR2 250611Z 19016KT 22/15 A2993 RMK A01 T02240148  RH  062%=      5-min Rain = 0
KCR2 250612Z 19016KT 22/15 A2993 RMK A01 T02240148  RH  062%=      5-min Rain = 0
KCR2 250613Z 20015KT 22/15 A2993 RMK A01 T02230148  RH  062%=      5-min Rain = 0
KCR2 250614Z 20015KT 22/15 A2994 RMK A01 T02230148  RH  063%=      5-min Rain = 0
KCR2 250615Z 19015KT 22/15 A2993 RMK A01 T02230149  RH  063%=      5-min Rain = 0
KCR2 250616Z 20016KT 22/15 A2994 RMK A01 T02230149  RH  063%=      5-min Rain = 0
KCR2 250617Z 19017KT 22/15 A2994 RMK A01 T02220149  RH  063%=      5-min Rain = 0
KCR2 250618Z 19014G19KT 22/15 A2994 RMK A01 T02220149  RH  063%=      5-min Rain = 0
KCR2 250619Z 19014KT 22/15 A2994 RMK A01 T02220149  RH  063%=      5-min Rain = 0
KCR2 250620Z 18013G19KT 22/15 A2994 RMK A01 T02210150  RH  064%=      5-min Rain = 0
KCR2 250621Z 18015KT 22/15 A2994 RMK A01 T02210150  RH  064%=      5-min Rain = 0
KCR2 250622Z 18011KT 22/15 A2995 RMK A01 T02210151  RH  064%=      5-min Rain = 0
KCR2 250623Z 18009KT 22/15 A2995 RMK A01 T02200151  RH  065%=      5-min Rain = 0
KCR2 250624Z 18009KT 22/15 A2995 RMK A01 T02200150  RH  065%=      5-min Rain = 0
KCR2 250625Z 17008KT 22/15 A2995 RMK A01 T02200150  RH  064%=      5-min Rain = 0
KCR2 250626Z 16005KT 22/15 A2995 RMK A01 T02200150  RH  065%=      5-min Rain = 0
KCR2 250627Z 15006KT 22/15 A2996 RMK A01 T02200151  RH  065%=      5-min Rain = 0
KCR2 250628Z 13005KT 22/15 A2996 RMK A01 T02200151  RH  065%=      5-min Rain = 0
KCR2 250629Z 15007KT 22/15 A2996 RMK A01 T02190151  RH  065%=      5-min Rain = 0
KCR2 250630Z 14009KT 22/15 A2996 RMK A01 T02190149  RH  065%=      5-min Rain = 0
KCR2 250631Z 15006KT 22/15 A2996 RMK A01 T02200150  RH  065%=      5-min Rain = 0
KCR2 250632Z 14005KT 22/15 A2996 RMK A01 T02200148  RH  064%=      5-min Rain = 0
KCR2 250633Z 14007KT 22/15 A2996 RMK A01 T02200148  RH  064%=      5-min Rain = 0
KCR2 250634Z 14009KT 22/15 A2996 RMK A01 T02210148  RH  063%=      5-min Rain = 0
KCR2 250635Z 15012KT 22/15 A2996 RMK A01 T02210147  RH  063%=      5-min Rain = 0
KCR2 250636Z 16010KT 22/15 A2995 RMK A01 T02210146  RH  062%=      5-min Rain = 0
KCR2 250637Z 18008KT 22/15 A2995 RMK A01 T02220147  RH  063%=      5-min Rain = 0
KCR2 250638Z 18011KT 22/15 A2995 RMK A01 T02220147  RH  062%=      5-min Rain = 0
KCR2 250639Z 17013KT 22/14 A2995 RMK A01 T02220143  RH  061%=      5-min Rain = 0
KCR2 250640Z 16012KT 22/14 A2995 RMK A01 T02230143  RH  061%=      5-min Rain = 0
KCR2 250641Z 16012KT 22/14 A2995 RMK A01 T02230142  RH  060%=      5-min Rain = 0
KCR2 250642Z 17011KT 22/14 A2996 RMK A01 T02240142  RH  060%=      5-min Rain = 0
KCR2 250643Z 15009KT 22/14 A2996 RMK A01 T02240144  RH  060%=      5-min Rain = 0
KCR2 250644Z 15009KT 22/14 A2996 RMK A01 T02230143  RH  060%=      5-min Rain = 0
KCR2 250645Z 16012KT 22/14 A2996 RMK A01 T02230141  RH  060%=      5-min Rain = 0
KCR2 250646Z 15009KT 22/14 A2996 RMK A01 T02240139  RH  059%=      5-min Rain = 0
KCR2 250647Z 15009KT 22/14 A2996 RMK A01 T02240139  RH  059%=      5-min Rain = 0
KCR2 250648Z 16009KT 22/14 A2996 RMK A01 T02240138  RH  058%=      5-min Rain = 0
KCR2 250649Z 17010KT 23/14 A2996 RMK A01 T02250138  RH  058%=      5-min Rain = 0
KCR2 250650Z 18009KT 23/14 A2996 RMK A01 T02250137  RH  057%=      5-min Rain = 0
KCR2 250651Z 17009KT 23/14 A2996 RMK A01 T02250136  RH  057%=      5-min Rain = 0
KCR2 250652Z 15010KT 23/14 A2995 RMK A01 T02250135  RH  057%=      5-min Rain = 0
KCR2 250653Z 17008KT 23/14 A2995 RMK A01 T02250135  RH  057%=      5-min Rain = 0
KCR2 250654Z 17008KT 23/13 A2995 RMK A01 T02260134  RH  056%=      5-min Rain = 0
KCR2 250655Z 17009G14KT 23/14 A2995 RMK A01 T02260135  RH  056%=      5-min Rain = 0
KCR2 250656Z 16011KT 23/13 A2995 RMK A01 T02260133  RH  056%=      5-min Rain = 0
KCR2 250657Z 16011KT 23/13 A2995 RMK A01 T02270132  RH  055%=      5-min Rain = 0
KCR2 250658Z 17012G19KT 23/13 A2995 RMK A01 T02270132  RH  055%=      5-min Rain = 0
KCR2 250659Z 16014KT 23/13 A2995 RMK A01 T02280130  RH  054%=      5-min Rain = 0
KCR2 250700Z 16015KT 23/13 A2995 RMK A01 T02290130  RH  054%=      5-min Rain = 0
KCR2 250701Z 15011KT 23/13 A2995 RMK A01 T02300131  RH  054%=      5-min Rain = 0
KCR2 250702Z 15010KT 23/13 A2995 RMK A01 T02300131  RH  054%=      5-min Rain = 0
KCR2 250703Z 16012KT 23/13 A2995 RMK A01 T02290130  RH  054%=      5-min Rain = 0
KCR2 250704Z 15010KT 23/13 A2995 RMK A01 T02290130  RH  054%=      5-min Rain = 0
KCR2 250705Z 15012KT 23/13 A2995 RMK A01 T02290130  RH  054%=      5-min Rain = 0
KCR2 250706Z 15011KT 23/13 A2995 RMK A01 T02300130  RH  053%=      5-min Rain = 0
KCR2 250707Z 17012KT 23/13 A2995 RMK A01 T02300130  RH  053%=      5-min Rain = 0
KCR2 250708Z 17009KT 23/13 A2995 RMK A01 T02300131  RH  053%=      5-min Rain = 0
KCR2 250709Z 16009KT 23/13 A2995 RMK A01 T02300131  RH  054%=      5-min Rain = 0
KCR2 250710Z 15009KT 23/13 A2995 RMK A01 T02300131  RH  054%=      5-min Rain = 0
KCR2 250711Z 16011KT 23/13 A2995 RMK A01 T02290131  RH  054%=      5-min Rain = 0
KCR2 250712Z 16011KT 23/13 A2995 RMK A01 T02300131  RH  054%=      5-min Rain = 0
KCR2 250713Z 16012KT 23/13 A2995 RMK A01 T02290131  RH  054%=      5-min Rain = 0
KCR2 250714Z 16010KT 23/13 A2995 RMK A01 T02300130  RH  054%=      5-min Rain = 0
KCR2 250715Z 15011KT 23/13 A2995 RMK A01 T02300131  RH  054%=      5-min Rain = 0
KCR2 250716Z 16010KT 23/13 A2995 RMK A01 T02300131  RH  054%=      5-min Rain = 0
KCR2 250717Z 16011KT 23/13 A2995 RMK A01 T02300132  RH  054%=      5-min Rain = 0
KCR2 250718Z 16010KT 23/13 A2995 RMK A01 T02290132  RH  054%=      5-min Rain = 0
KCR2 250719Z 16010KT 23/13 A2995 RMK A01 T02280131  RH  054%=      5-min Rain = 0
KCR2 250720Z 15012KT 23/13 A2995 RMK A01 T02280132  RH  054%=      5-min Rain = 0
KCR2 250721Z 17010KT 23/13 A2995 RMK A01 T02280132  RH  055%=      5-min Rain = 0
KCR2 250722Z 17013KT 23/13 A2995 RMK A01 T02280132  RH  055%=      5-min Rain = 0
KCR2 250723Z 15013KT 23/13 A2995 RMK A01 T02280132  RH  054%=      5-min Rain = 0
KCR2 250724Z 15012KT 23/13 A2994 RMK A01 T02280131  RH  054%=      5-min Rain = 0
KCR2 250725Z 15011KT 23/13 A2994 RMK A01 T02280132  RH  054%=      5-min Rain = 0
KCR2 250726Z 16013KT 23/13 A2994 RMK A01 T02280132  RH  055%=      5-min Rain = 0
KCR2 250727Z 16011KT 23/13 A2994 RMK A01 T02280132  RH  055%=      5-min Rain = 0
KCR2 250728Z 16008KT 23/13 A2994 RMK A01 T02280132  RH  055%=      5-min Rain = 0
KCR2 250729Z 16008KT 23/13 A2994 RMK A01 T02270132  RH  055%=      5-min Rain = 0
KCR2 250730Z 15012KT 23/13 A2994 RMK A01 T02270131  RH  055%=      5-min Rain = 0
KCR2 250731Z 15009KT 23/13 A2994 RMK A01 T02270131  RH  054%=      5-min Rain = 0
KCR2 250732Z 16009KT 23/13 A2994 RMK A01 T02280131  RH  054%=      5-min Rain = 0
KCR2 250733Z 15009KT 23/13 A2994 RMK A01 T02280132  RH  054%=      5-min Rain = 0
KCR2 250734Z 14011KT 23/13 A2994 RMK A01 T02280131  RH  054%=      5-min Rain = 0
KCR2 250735Z 16010KT 23/13 A2994 RMK A01 T02280131  RH  054%=      5-min Rain = 0
KCR2 250736Z 14009KT 23/13 A2994 RMK A01 T02280132  RH  054%=      5-min Rain = 0
KCR2 250737Z 15009KT 23/13 A2994 RMK A01 T02280132  RH  054%=      5-min Rain = 0
KCR2 250738Z 15009KT 23/13 A2994 RMK A01 T02280132  RH  054%=      5-min Rain = 0
KCR2 250739Z 15009KT 23/13 A2994 RMK A01 T02280132  RH  054%=      5-min Rain = 0
KCR2 250740Z 15008KT 23/13 A2994 RMK A01 T02280132  RH  055%=      5-min Rain = 0
KCR2 250741Z 16008KT 23/13 A2994 RMK A01 T02280132  RH  055%=      5-min Rain = 0
KCR2 250742Z 17008KT 23/13 A2994 RMK A01 T02280132  RH  055%=      5-min Rain = 0
KCR2 250743Z 16008KT 23/13 A2994 RMK A01 T02280132  RH  055%=      5-min Rain = 0
KCR2 250744Z 16009KT 23/13 A2994 RMK A01 T02280132  RH  055%=      5-min Rain = 0
KCR2 250745Z 16006KT 23/13 A2994 RMK A01 T02270133  RH  055%=      5-min Rain = 0
KCR2 250746Z 17007KT 23/13 A2994 RMK A01 T02270133  RH  055%=      5-min Rain = 0
KCR2 250747Z 17008KT 23/13 A2994 RMK A01 T02260133  RH  056%=      5-min Rain = 0
KCR2 250748Z 16009KT 23/13 A2994 RMK A01 T02270133  RH  055%=      5-min Rain = 0
KCR2 250749Z 17007KT 23/13 A2994 RMK A01 T02270133  RH  055%=      5-min Rain = 0
KCR2 250750Z 16006KT 23/13 A2994 RMK A01 T02270133  RH  055%=      5-min Rain = 0
KCR2 250751Z 17005KT 23/13 A2994 RMK A01 T02270133  RH  055%=      5-min Rain = 0
KCR2 250752Z 16005KT 23/13 A2994 RMK A01 T02260134  RH  056%=      5-min Rain = 0
KCR2 250753Z 16008KT 23/13 A2994 RMK A01 T02260134  RH  056%=      5-min Rain = 0
KCR2 250754Z 16007KT 23/13 A2994 RMK A01 T02260133  RH  056%=      5-min Rain = 0
KCR2 250755Z 17008KT 23/13 A2994 RMK A01 T02260134  RH  056%=      5-min Rain = 0
KCR2 250756Z 17006KT 23/13 A2994 RMK A01 T02270134  RH  056%=      5-min Rain = 0
KCR2 250757Z 15008KT 23/13 A2994 RMK A01 T02260134  RH  056%=      5-min Rain = 0
KCR2 250758Z 16008KT 23/13 A2994 RMK A01 T02270134  RH  056%=      5-min Rain = 0
KCR2 250759Z 17009KT 23/13 A2993 RMK A01 T02270134  RH  056%=      5-min Rain = 0
KCR2 250800Z 16010KT 23/14 A2993 RMK A01 T02270135  RH  056%=      5-min Rain = 0
KCR2 250801Z 16012KT 23/14 A2993 RMK A01 T02280135  RH  056%=      5-min Rain = 0
KCR2 250802Z 16010KT 23/14 A2993 RMK A01 T02280135  RH  056%=      5-min Rain = 0
KCR2 250803Z 15010KT 23/14 A2993 RMK A01 T02280135  RH  056%=      5-min Rain = 0
KCR2 250804Z 15009KT 23/14 A2993 RMK A01 T02280135  RH  056%=      5-min Rain = 0
KCR2 250805Z 16009KT 23/14 A2994 RMK A01 T02280136  RH  056%=      5-min Rain = 0
KCR2 250806Z 16009KT 23/14 A2994 RMK A01 T02270136  RH  057%=      5-min Rain = 0
KCR2 250807Z 15009KT 23/14 A2994 RMK A01 T02270136  RH  057%=      5-min Rain = 0
KCR2 250808Z 15010KT 23/14 A2994 RMK A01 T02260136  RH  057%=      5-min Rain = 0
KCR2 250809Z 13010KT 23/14 A2994 RMK A01 T02260137  RH  057%=      5-min Rain = 0
KCR2 250810Z 14012KT 23/14 A2994 RMK A01 T02270137  RH  057%=      5-min Rain = 0
KCR2 250811Z 14012KT 23/14 A2994 RMK A01 T02270137  RH  057%=      5-min Rain = 0
KCR2 250812Z 13011KT 23/14 A2994 RMK A01 T02270137  RH  057%=      5-min Rain = 0
KCR2 250813Z 14011KT 23/14 A2994 RMK A01 T02260138  RH  057%=      5-min Rain = 0
KCR2 250814Z 14010KT 23/14 A2994 RMK A01 T02260138  RH  057%=      5-min Rain = 0
KCR2 250815Z 14011KT 23/14 A2994 RMK A01 T02250138  RH  058%=      5-min Rain = 0
KCR2 250816Z 14012KT 23/14 A2994 RMK A01 T02260138  RH  058%=      5-min Rain = 0
KCR2 250817Z 15013KT 23/14 A2994 RMK A01 T02260139  RH  058%=      5-min Rain = 0
KCR2 250818Z 14013KT 23/14 A2994 RMK A01 T02260139  RH  058%=      5-min Rain = 0
KCR2 250819Z 13012KT 23/14 A2994 RMK A01 T02260139  RH  058%=      5-min Rain = 0
KCR2 250820Z 13012KT 23/14 A2994 RMK A01 T02260139  RH  058%=      5-min Rain = 0
KCR2 250821Z 14015KT 23/14 A2994 RMK A01 T02260139  RH  058%=      5-min Rain = 0
KCR2 250822Z 14011KT 23/14 A2994 RMK A01 T02260140  RH  058%=      5-min Rain = 0
KCR2 250823Z 14009KT 23/14 A2994 RMK A01 T02270140  RH  058%=      5-min Rain = 0
KCR2 250824Z 14010KT 23/14 A2994 RMK A01 T02260140  RH  058%=      5-min Rain = 0
KCR2 250825Z 14009KT 23/14 A2994 RMK A01 T02260141  RH  059%=      5-min Rain = 0
KCR2 250826Z 14009KT 23/14 A2995 RMK A01 T02260141  RH  059%=      5-min Rain = 0
KCR2 250827Z 14008KT 23/14 A2995 RMK A01 T02250141  RH  059%=      5-min Rain = 0
KCR2 250828Z 13008KT 23/14 A2995 RMK A01 T02250142  RH  059%=      5-min Rain = 0
KCR2 250829Z 13007KT 23/14 A2995 RMK A01 T02250142  RH  060%=      5-min Rain = 0
KCR2 250830Z 13009KT 23/14 A2995 RMK A01 T02250143  RH  060%=      5-min Rain = 0
KCR2 250831Z 13009KT 22/14 A2995 RMK A01 T02240144  RH  060%=      5-min Rain = 0
KCR2 250832Z 14008KT 22/14 A2995 RMK A01 T02240144  RH  061%=      5-min Rain = 0
KCR2 250833Z 14009KT 22/15 A2995 RMK A01 T02240145  RH  061%=      5-min Rain = 0
KCR2 250834Z 14011KT 22/15 A2995 RMK A01 T02240146  RH  061%=      5-min Rain = 0
KCR2 250835Z 14010KT 22/15 A2995 RMK A01 T02240147  RH  061%=      5-min Rain = 0
KCR2 250836Z 14008KT 22/15 A2995 RMK A01 T02240146  RH  061%=      5-min Rain = 0
KCR2 250837Z 15009KT 22/15 A2995 RMK A01 T02240146  RH  061%=      5-min Rain = 0
KCR2 250838Z 15009KT 22/15 A2995 RMK A01 T02230147  RH  062%=      5-min Rain = 0
KCR2 250839Z 15008KT 22/15 A2995 RMK A01 T02240147  RH  062%=      5-min Rain = 0
KCR2 250840Z 15011KT 22/15 A2994 RMK A01 T02230148  RH  062%=      5-min Rain = 0
KCR2 250841Z 15010KT 22/15 A2994 RMK A01 T02230148  RH  062%=      5-min Rain = 0
KCR2 250842Z 16010KT 22/15 A2994 RMK A01 T02230149  RH  063%=      5-min Rain = 0
KCR2 250843Z 16012KT 22/15 A2994 RMK A01 T02230149  RH  063%=      5-min Rain = 0
KCR2 250844Z 16011KT 22/15 A2994 RMK A01 T02230149  RH  063%=      5-min Rain = 0
KCR2 250845Z 16008KT 22/15 A2994 RMK A01 T02240150  RH  063%=      5-min Rain = 0
KCR2 250846Z 16009KT 22/15 A2994 RMK A01 T02240150  RH  063%=      5-min Rain = 0
KCR2 250847Z 17010KT 22/15 A2994 RMK A01 T02240151  RH  063%=      5-min Rain = 0
KCR2 250848Z 16008KT 22/15 A2994 RMK A01 T02240151  RH  063%=      5-min Rain = 0
KCR2 250849Z 17009KT 22/15 A2994 RMK A01 T02230151  RH  063%=      5-min Rain = 0
KCR2 250850Z 17011KT 22/15 A2994 RMK A01 T02240152  RH  064%=      5-min Rain = 0
KCR2 250851Z 16012KT 22/15 A2994 RMK A01 T02240152  RH  064%=      5-min Rain = 0
KCR2 250852Z 17010KT 22/15 A2994 RMK A01 T02230152  RH  064%=      5-min Rain = 0
KCR2 250853Z 17010KT 22/15 A2994 RMK A01 T02230152  RH  064%=      5-min Rain = 0
KCR2 250854Z 17010KT 22/15 A2994 RMK A01 T02230152  RH  064%=      5-min Rain = 0
KCR2 250855Z 16010KT 22/15 A2994 RMK A01 T02220153  RH  065%=      5-min Rain = 0
KCR2 250856Z 16012KT 22/15 A2994 RMK A01 T02220153  RH  065%=      5-min Rain = 0
KCR2 250857Z 17011KT 22/15 A2994 RMK A01 T02220153  RH  065%=      5-min Rain = 0
KCR2 250858Z 16008KT 22/15 A2994 RMK A01 T02220153  RH  065%=      5-min Rain = 0
KCR2 250859Z 17008KT 22/15 A2994 RMK A01 T02220153  RH  065%=      5-min Rain = 0
KCR2 250900Z 17009KT 22/15 A2994 RMK A01 T02220153  RH  065%=      5-min Rain = 0
KCR2 250901Z 16009KT 22/15 A2994 RMK A01 T02210153  RH  065%=      5-min Rain = 0
KCR2 250902Z 16010KT 22/15 A2994 RMK A01 T02210153  RH  066%=      5-min Rain = 0
KCR2 250903Z 16009KT 22/15 A2994 RMK A01 T02210153  RH  066%=      5-min Rain = 0
KCR2 250904Z 16010KT 22/15 A2994 RMK A01 T02210154  RH  066%=      5-min Rain = 0
KCR2 250905Z 17013KT 22/15 A2994 RMK A01 T02210154  RH  066%=      5-min Rain = 0
KCR2 250906Z 17010KT 22/15 A2994 RMK A01 T02210154  RH  066%=      5-min Rain = 0
KCR2 250907Z 17008KT 22/15 A2994 RMK A01 T02210154  RH  066%=      5-min Rain = 0
KCR2 250908Z 17008KT 22/15 A2994 RMK A01 T02210154  RH  066%=      5-min Rain = 0
KCR2 250909Z 17008KT 22/15 A2994 RMK A01 T02210154  RH  066%=      5-min Rain = 0
KCR2 250910Z 17009KT 22/16 A2994 RMK A01 T02200155  RH  066%=      5-min Rain = 0
KCR2 250911Z 16010KT 22/16 A2994 RMK A01 T02200155  RH  066%=      5-min Rain = 0
KCR2 250912Z 16009KT 22/16 A2994 RMK A01 T02200155  RH  067%=      5-min Rain = 0
KCR2 250913Z 16011KT 22/16 A2995 RMK A01 T02200156  RH  067%=      5-min Rain = 0
KCR2 250914Z 16009KT 22/16 A2995 RMK A01 T02200156  RH  067%=      5-min Rain = 0
KCR2 250915Z 17009KT 22/16 A2995 RMK A01 T02200156  RH  067%=      5-min Rain = 0
KCR2 250916Z 17012KT 22/16 A2995 RMK A01 T02200156  RH  067%=      5-min Rain = 0
KCR2 250917Z 16011KT 22/16 A2995 RMK A01 T02200157  RH  067%=      5-min Rain = 0
KCR2 250918Z 16010KT 22/16 A2995 RMK A01 T02200157  RH  067%=      5-min Rain = 0
KCR2 250919Z 17009KT 22/16 A2995 RMK A01 T02200157  RH  067%=      5-min Rain = 0
KCR2 250920Z 17011KT 22/16 A2995 RMK A01 T02200157  RH  067%=      5-min Rain = 0
KCR2 250921Z 16008KT 22/16 A2995 RMK A01 T02200158  RH  068%=      5-min Rain = 0
KCR2 250922Z 17008KT 22/16 A2995 RMK A01 T02200158  RH  068%=      5-min Rain = 0
KCR2 250923Z 17007KT 22/16 A2995 RMK A01 T02190157  RH  068%=      5-min Rain = 0
KCR2 250924Z 16008KT 22/16 A2995 RMK A01 T02190157  RH  068%=      5-min Rain = 0
KCR2 250925Z 16008KT 22/16 A2995 RMK A01 T02190158  RH  068%=      5-min Rain = 0
KCR2 250926Z 16010KT 22/16 A2995 RMK A01 T02190158  RH  068%=      5-min Rain = 0
KCR2 250927Z 17009KT 22/16 A2995 RMK A01 T02190158  RH  068%=      5-min Rain = 0
KCR2 250928Z 17009KT 22/16 A2995 RMK A01 T02190158  RH  068%=      5-min Rain = 0
KCR2 250929Z 16008KT 22/16 A2995 RMK A01 T02190158  RH  068%=      5-min Rain = 0
KCR2 250930Z 16009KT 22/16 A2995 RMK A01 T02190158  RH  068%=      5-min Rain = 0
KCR2 250931Z 17006KT 22/16 A2995 RMK A01 T02190159  RH  069%=      5-min Rain = 0
KCR2 250932Z 17007KT 22/16 A2995 RMK A01 T02190159  RH  069%=      5-min Rain = 0
KCR2 250933Z 17007KT 22/16 A2995 RMK A01 T02180159  RH  069%=      5-min Rain = 0
KCR2 250934Z 17006KT 22/16 A2995 RMK A01 T02180159  RH  069%=      5-min Rain = 0
KCR2 250935Z 17007KT 22/16 A2995 RMK A01 T02180159  RH  069%=      5-min Rain = 0
KCR2 250936Z 17008KT 22/16 A2995 RMK A01 T02180159  RH  069%=      5-min Rain = 0
KCR2 250937Z 17006KT 22/16 A2995 RMK A01 T02180160  RH  070%=      5-min Rain = 0
KCR2 250938Z 18007KT 22/16 A2995 RMK A01 T02180160  RH  070%=      5-min Rain = 0
KCR2 250939Z 17008KT 22/16 A2995 RMK A01 T02180160  RH  070%=      5-min Rain = 0
KCR2 250940Z 17006KT 22/16 A2996 RMK A01 T02180160  RH  070%=      5-min Rain = 0
KCR2 250941Z 17008KT 22/16 A2996 RMK A01 T02180160  RH  070%=      5-min Rain = 0
KCR2 250942Z 17008KT 22/16 A2996 RMK A01 T02180161  RH  070%=      5-min Rain = 0
KCR2 250943Z 18007KT 22/16 A2996 RMK A01 T02190161  RH  070%=      5-min Rain = 0
KCR2 250944Z 17007KT 22/16 A2996 RMK A01 T02180161  RH  070%=      5-min Rain = 0
KCR2 250945Z 17008KT 22/16 A2996 RMK A01 T02180161  RH  070%=      5-min Rain = 0
KCR2 250946Z 18009KT 22/16 A2996 RMK A01 T02180162  RH  070%=      5-min Rain = 0
KCR2 250947Z 17009KT 22/16 A2996 RMK A01 T02190162  RH  070%=      5-min Rain = 0
KCR2 250948Z 17008KT 22/16 A2996 RMK A01 T02190162  RH  070%=      5-min Rain = 0
KCR2 250949Z 18008KT 22/16 A2996 RMK A01 T02190163  RH  070%=      5-min Rain = 0
KCR2 250950Z 18008KT 22/16 A2996 RMK A01 T02190162  RH  070%=      5-min Rain = 0
KCR2 250951Z 18009KT 22/16 A2996 RMK A01 T02190163  RH  070%=      5-min Rain = 0
KCR2 250952Z 18007KT 22/16 A2996 RMK A01 T02190163  RH  070%=      5-min Rain = 0
KCR2 250953Z 17007G13KT 22/16 A2996 RMK A01 T02190163  RH  070%=      5-min Rain = 0
KCR2 250954Z 17009KT 22/16 A2996 RMK A01 T02190163  RH  071%=      5-min Rain = 0
KCR2 250955Z 18011KT 22/16 A2996 RMK A01 T02190164  RH  071%=      5-min Rain = 0
KCR2 250956Z 18010KT 22/16 A2996 RMK A01 T02200164  RH  071%=      5-min Rain = 0
KCR2 250957Z 18012KT 22/17 A2996 RMK A01 T02200165  RH  071%=      5-min Rain = 0
KCR2 250958Z 17010KT 22/17 A2996 RMK A01 T02200165  RH  071%=      5-min Rain = 0
KCR2 250959Z 18009KT 22/17 A2996 RMK A01 T02210165  RH  071%=      5-min Rain = 0
KCR2 251000Z 18008KT 22/17 A2996 RMK A01 T02210165  RH  071%=      5-min Rain = 0
KCR2 251001Z 18008KT 22/17 A2996 RMK A01 T02210166  RH  071%=      5-min Rain = 0
KCR2 251002Z 19006KT 22/17 A2996 RMK A01 T02200166  RH  071%=      5-min Rain = 0
KCR2 251003Z 19007KT 22/17 A2996 RMK A01 T02200165  RH  071%=      5-min Rain = 0
KCR2 251004Z 19010KT 22/17 A2996 RMK A01 T02190166  RH  072%=      5-min Rain = 0
KCR2 251005Z 18009KT 22/17 A2996 RMK A01 T02190167  RH  072%=      5-min Rain = 0
KCR2 251006Z 19008KT 22/17 A2996 RMK A01 T02200167  RH  072%=      5-min Rain = 0
KCR2 251007Z 19007KT 22/17 A2996 RMK A01 T02200167  RH  072%=      5-min Rain = 0
KCR2 251008Z 17007KT 22/17 A2996 RMK A01 T02200167  RH  072%=      5-min Rain = 0
KCR2 251009Z 19007KT 22/17 A2996 RMK A01 T02200167  RH  072%=      5-min Rain = 0
KCR2 251010Z 18006KT 22/17 A2996 RMK A01 T02200168  RH  072%=      5-min Rain = 0
KCR2 251011Z 17007KT 22/17 A2996 RMK A01 T02190168  RH  072%=      5-min Rain = 0
KCR2 251012Z 18008KT 22/17 A2996 RMK A01 T02190168  RH  073%=      5-min Rain = 0
KCR2 251013Z 18008KT 22/17 A2997 RMK A01 T02190168  RH  073%=      5-min Rain = 0
KCR2 251014Z 18007KT 22/17 A2997 RMK A01 T02190168  RH  073%=      5-min Rain = 0
KCR2 251015Z 17007KT 22/17 A2997 RMK A01 T02190168  RH  073%=      5-min Rain = 0
KCR2 251016Z 18007KT 22/17 A2997 RMK A01 T02190168  RH  073%=      5-min Rain = 0
KCR2 251017Z 18009KT 22/17 A2997 RMK A01 T02190168  RH  073%=      5-min Rain = 0
KCR2 251018Z 17007KT 22/17 A2997 RMK A01 T02200168  RH  072%=      5-min Rain = 0
KCR2 251019Z 18008KT 22/17 A2997 RMK A01 T02200168  RH  072%=      5-min Rain = 0
KCR2 251020Z 17008KT 22/17 A2997 RMK A01 T02200169  RH  072%=      5-min Rain = 0
KCR2 251021Z 17007KT 22/17 A2997 RMK A01 T02200168  RH  072%=      5-min Rain = 0
KCR2 251022Z 17008KT 22/17 A2997 RMK A01 T02210169  RH  072%=      5-min Rain = 0
KCR2 251023Z 17008KT 22/17 A2997 RMK A01 T02210169  RH  072%=      5-min Rain = 0
KCR2 251024Z 17008KT 22/17 A2998 RMK A01 T02210169  RH  072%=      5-min Rain = 0
KCR2 251025Z 17008KT 22/17 A2998 RMK A01 T02210169  RH  072%=      5-min Rain = 0
KCR2 251026Z 16008KT 22/17 A2998 RMK A01 T02210169  RH  072%=      5-min Rain = 0
KCR2 251027Z 17009KT 22/17 A2998 RMK A01 T02210169  RH  072%=      5-min Rain = 0
KCR2 251028Z 17009KT 22/17 A2998 RMK A01 T02210169  RH  072%=      5-min Rain = 0
KCR2 251029Z 18008KT 22/17 A2998 RMK A01 T02210169  RH  072%=      5-min Rain = 0
KCR2 251030Z 18011KT 22/17 A2998 RMK A01 T02210169  RH  072%=      5-min Rain = 0
KCR2 251031Z 17011KT 22/17 A2998 RMK A01 T02210169  RH  072%=      5-min Rain = 0
KCR2 251032Z 17011KT 22/17 A2998 RMK A01 T02210169  RH  072%=      5-min Rain = 0
KCR2 251033Z 18010KT 22/17 A2998 RMK A01 T02220169  RH  072%=      5-min Rain = 0
KCR2 251034Z 17008KT 22/17 A2998 RMK A01 T02220169  RH  072%=      5-min Rain = 0
KCR2 251035Z 19010KT 22/17 A2998 RMK A01 T02210169  RH  072%=      5-min Rain = 0
KCR2 251036Z 19010KT 22/17 A2998 RMK A01 T02210169  RH  072%=      5-min Rain = 0
KCR2 251037Z 16008KT 22/17 A2998 RMK A01 T02210169  RH  072%=      5-min Rain = 0
KCR2 251038Z 19009KT 22/17 A2998 RMK A01 T02210169  RH  072%=      5-min Rain = 0
KCR2 251039Z 18008KT 22/17 A2998 RMK A01 T02220169  RH  072%=      5-min Rain = 0
KCR2 251040Z 17008KT 22/17 A2998 RMK A01 T02210168  RH  072%=      5-min Rain = 0
KCR2 251041Z 18009KT 22/17 A2998 RMK A01 T02210169  RH  072%=      5-min Rain = 0
KCR2 251042Z 18008KT 22/17 A2998 RMK A01 T02210169  RH  072%=      5-min Rain = 0
KCR2 251043Z 19008KT 22/17 A2998 RMK A01 T02210170  RH  073%=      5-min Rain = 0
KCR2 251044Z 19006KT 22/17 A2998 RMK A01 T02200169  RH  073%=      5-min Rain = 0
KCR2 251045Z 19008KT 22/17 A2999 RMK A01 T02210170  RH  073%=      5-min Rain = 0
KCR2 251046Z 19009KT 22/17 A2998 RMK A01 T02200170  RH  073%=      5-min Rain = 0
KCR2 251047Z 19007KT 22/17 A2999 RMK A01 T02210170  RH  073%=      5-min Rain = 0
KCR2 251048Z 18011KT 22/17 A2999 RMK A01 T02210171  RH  073%=      5-min Rain = 0
KCR2 251049Z 18010KT 22/17 A2999 RMK A01 T02200170  RH  073%=      5-min Rain = 0
KCR2 251050Z 17006KT 22/17 A2999 RMK A01 T02210170  RH  073%=      5-min Rain = 0
KCR2 251051Z 17008KT 22/17 A2999 RMK A01 T02210170  RH  073%=      5-min Rain = 0
KCR2 251052Z 18008KT 22/17 A2999 RMK A01 T02200171  RH  073%=      5-min Rain = 0
KCR2 251053Z 17009KT 22/17 A2999 RMK A01 T02200171  RH  074%=      5-min Rain = 0
KCR2 251054Z 16008KT 22/17 A2999 RMK A01 T02200170  RH  073%=      5-min Rain = 0
KCR2 251055Z 17009KT 22/17 A2999 RMK A01 T02200171  RH  074%=      5-min Rain = 0
KCR2 251056Z 19011KT 22/17 A2999 RMK A01 T02200171  RH  074%=      5-min Rain = 0
KCR2 251057Z 18009KT 22/17 A2999 RMK A01 T02200171  RH  074%=      5-min Rain = 0
KCR2 251058Z 17009KT 22/17 A2999 RMK A01 T02200171  RH  074%=      5-min Rain = 0
KCR2 251059Z 18012G17KT 22/17 A2999 RMK A01 T02200171  RH  074%=      5-min Rain = 0
KCR2 251100Z 18014KT 22/17 A2998 RMK A01 T02200172  RH  074%=      5-min Rain = 0
KCR2 251101Z 18013KT 22/17 A2998 RMK A01 T02200172  RH  074%=      5-min Rain = 0
KCR2 251102Z 18009KT 22/17 A2999 RMK A01 T02200172  RH  074%=      5-min Rain = 0
KCR2 251103Z 18011KT 22/17 A2998 RMK A01 T02190171  RH  074%=      5-min Rain = 0
KCR2 251104Z 19010KT 22/17 A2998 RMK A01 T02190172  RH  074%=      5-min Rain = 0
KCR2 251105Z 18011KT 22/17 A2998 RMK A01 T02190171  RH  074%=      5-min Rain = 0
KCR2 251106Z 17012KT 22/17 A2999 RMK A01 T02190172  RH  074%=      5-min Rain = 0
KCR2 251107Z 19010KT 22/17 A2999 RMK A01 T02190171  RH  074%=      5-min Rain = 0
KCR2 251108Z 18015KT 22/17 A2999 RMK A01 T02190172  RH  074%=      5-min Rain = 0
KCR2 251109Z 18014KT 22/17 A2998 RMK A01 T02190172  RH  074%=      5-min Rain = 0
KCR2 251110Z 18013G23KT 22/17 A2999 RMK A01 T02190171  RH  074%=      5-min Rain = 0
KCR2 251111Z 18017KT 22/17 A2998 RMK A01 T02190171  RH  074%=      5-min Rain = 0
KCR2 251112Z 19017G22KT 22/17 A2998 RMK A01 T02190172  RH  074%=      5-min Rain = 0
KCR2 251113Z 19017KT 22/17 A2998 RMK A01 T02190171  RH  074%=      5-min Rain = 0
KCR2 251114Z 18015KT 22/17 A2998 RMK A01 T02190171  RH  074%=      5-min Rain = 0
KCR2 251115Z 18015KT 22/17 A2998 RMK A01 T02180171  RH  074%=      5-min Rain = 0
KCR2 251116Z 18014KT 22/17 A2999 RMK A01 T02180171  RH  074%=      5-min Rain = 0
KCR2 251117Z 18014KT 22/17 A2999 RMK A01 T02180171  RH  075%=      5-min Rain = 0
KCR2 251118Z 18015KT 22/17 A2999 RMK A01 T02180171  RH  075%=      5-min Rain = 0
KCR2 251119Z 18016KT 22/17 A2999 RMK A01 T02180170  RH  074%=      5-min Rain = 0
KCR2 251120Z 18013KT 22/17 A2999 RMK A01 T02180170  RH  074%=      5-min Rain = 0
KCR2 251121Z 18015G21KT 22/17 A2999 RMK A01 T02170170  RH  074%=      5-min Rain = 0
KCR2 251122Z 18017KT 22/17 A2999 RMK A01 T02170169  RH  074%=      5-min Rain = 0
KCR2 251123Z 18012G17KT 22/17 A2999 RMK A01 T02170169  RH  074%=      5-min Rain = 0
KCR2 251124Z 18015KT 22/17 A2999 RMK A01 T02170169  RH  074%=      5-min Rain = 0
KCR2 251125Z 18014KT 22/17 A2999 RMK A01 T02170168  RH  074%=      5-min Rain = 0
KCR2 251126Z 19015KT 22/17 A2999 RMK A01 T02170168  RH  074%=      5-min Rain = 0
KCR2 251127Z 19014KT 22/17 A2999 RMK A01 T02170168  RH  074%=      5-min Rain = 0
KCR2 251128Z 18013KT 22/17 A2999 RMK A01 T02160167  RH  074%=      5-min Rain = 0
KCR2 251129Z 18014KT 22/17 A2999 RMK A01 T02160168  RH  074%=      5-min Rain = 0
KCR2 251130Z 19014KT 22/17 A2999 RMK A01 T02160168  RH  074%=      5-min Rain = 0
KCR2 251131Z 18012G17KT 22/17 A2999 RMK A01 T02160168  RH  074%=      5-min Rain = 0
KCR2 251132Z 19014KT 22/17 A2999 RMK A01 T02150168  RH  074%=      5-min Rain = 0
KCR2 251133Z 19012KT 22/17 A2999 RMK A01 T02150168  RH  074%=      5-min Rain = 0
KCR2 251134Z 18015KT 22/17 A2999 RMK A01 T02150168  RH  075%=      5-min Rain = 0
KCR2 251135Z 19015KT 22/17 A2999 RMK A01 T02150168  RH  075%=      5-min Rain = 0
KCR2 251136Z 18015KT 22/17 A2999 RMK A01 T02150168  RH  075%=      5-min Rain = 0
KCR2 251137Z 19013KT 22/17 A2999 RMK A01 T02150169  RH  075%=      5-min Rain = 0
KCR2 251138Z 19014KT 21/17 A2999 RMK A01 T02140168  RH  075%=      5-min Rain = 0
KCR2 251139Z 19011KT 21/17 A2999 RMK A01 T02140168  RH  075%=      5-min Rain = 0
KCR2 251140Z 19011KT 21/17 A2999 RMK A01 T02140168  RH  075%=      5-min Rain = 0
KCR2 251141Z 19011KT 21/17 A30 RMK A01 T02130168  RH  075%=      5-min Rain = 0
KCR2 251142Z 18010KT 21/17 A30 RMK A01 T02130169  RH  076%=      5-min Rain = 0
KCR2 251143Z 19011KT 21/17 A30 RMK A01 T02130169  RH  076%=      5-min Rain = 0
KCR2 251144Z 19014KT 21/17 A30 RMK A01 T02130169  RH  076%=      5-min Rain = 0
KCR2 251145Z 18012KT 21/17 A30 RMK A01 T02130170  RH  076%=      5-min Rain = 0
KCR2 251146Z 18013KT 21/17 A30 RMK A01 T02130169  RH  076%=      5-min Rain = 0
KCR2 251147Z 18012KT 21/17 A30 RMK A01 T02130169  RH  076%=      5-min Rain = 0
KCR2 251148Z 18012KT 21/17 A30 RMK A01 T02130169  RH  076%=      5-min Rain = 0
KCR2 251149Z 18013KT 21/17 A30 RMK A01 T02130169  RH  076%=      5-min Rain = 0
KCR2 251150Z 18012KT 21/17 A30 RMK A01 T02130170  RH  076%=      5-min Rain = 0
KCR2 251151Z 18015KT 21/17 A30 RMK A01 T02130170  RH  076%=      5-min Rain = 0
KCR2 251152Z 18017KT 21/17 A30 RMK A01 T02130170  RH  077%=      5-min Rain = 0
KCR2 251153Z 18015KT 21/17 A30 RMK A01 T02130171  RH  077%=      5-min Rain = 0
KCR2 251154Z 19013KT 21/17 A30 RMK A01 T02130171  RH  077%=      5-min Rain = 0
KCR2 251155Z 19013KT 21/17 A30 RMK A01 T02130171  RH  077%=      5-min Rain = 0
KCR2 251156Z 19012KT 21/17 A30 RMK A01 T02130170  RH  077%=      5-min Rain = 0
KCR2 251157Z 19016G21KT 21/17 A30 RMK A01 T02130171  RH  077%=      5-min Rain = 0
KCR2 251158Z 19014KT 21/17 A30 RMK A01 T02130171  RH  077%=      5-min Rain = 0
KCR2 251159Z 19015KT 21/17 A30 RMK A01 T02130171  RH  077%=      5-min Rain = 0
KCR2 251200Z 18017KT 21/17 A30 RMK A01 T02130172  RH  077%=      5-min Rain = 0
KCR2 251201Z 18016KT 21/17 A30 RMK A01 T02130172  RH  077%=      5-min Rain = 0
KCR2 251202Z 19015KT 21/17 A30 RMK A01 T02130172  RH  077%=      5-min Rain = 0
KCR2 251203Z 18014KT 21/17 A30 RMK A01 T02130172  RH  077%=      5-min Rain = 0
KCR2 251204Z 19012KT 21/17 A30 RMK A01 T02130172  RH  077%=      5-min Rain = 0
KCR2 251205Z 19015G20KT 21/17 A30 RMK A01 T02140173  RH  077%=      5-min Rain = 0
KCR2 251206Z 18015KT 21/17 A30 RMK A01 T02140173  RH  077%=      5-min Rain = 0
KCR2 251207Z 19012KT 21/17 A30 RMK A01 T02140173  RH  078%=      5-min Rain = 0
KCR2 251208Z 18014KT 21/17 A30 RMK A01 T02130173  RH  078%=      5-min Rain = 0
KCR2 251209Z 20012KT 21/17 A30 RMK A01 T02140173  RH  078%=      5-min Rain = 0
KCR2 251210Z 19013KT 21/17 A30 RMK A01 T02140173  RH  078%=      5-min Rain = 0
KCR2 251211Z 19014KT 21/17 A30 RMK A01 T02140174  RH  078%=      5-min Rain = 0
KCR2 251212Z 18017KT 21/17 A30 RMK A01 T02140174  RH  078%=      5-min Rain = 0
KCR2 251213Z 19017KT 21/17 A30 RMK A01 T02140174  RH  078%=      5-min Rain = 0
KCR2 251214Z 19017KT 21/17 A30 RMK A01 T02140174  RH  078%=      5-min Rain = 0
KCR2 251215Z 19019KT 21/18 A30 RMK A01 T02140175  RH  078%=      5-min Rain = 0
KCR2 251216Z 19017KT 21/18 A30 RMK A01 T02140175  RH  078%=      5-min Rain = 0
KCR2 251217Z 19019KT 21/18 A30 RMK A01 T02140175  RH  078%=      5-min Rain = 0
KCR2 251218Z 20016KT 21/18 A30 RMK A01 T02140176  RH  079%=      5-min Rain = 0
KCR2 251219Z 19014G19KT 21/18 A30 RMK A01 T02140175  RH  079%=      5-min Rain = 0
KCR2 251220Z 19016KT 22/18 A30 RMK A01 T02150176  RH  079%=      5-min Rain = 0
KCR2 251221Z 19017KT 22/18 A30 RMK A01 T02150176  RH  079%=      5-min Rain = 0
KCR2 251222Z 19016KT 22/18 A30 RMK A01 T02150176  RH  079%=      5-min Rain = 0
KCR2 251223Z 19014KT 22/18 A30 RMK A01 T02150176  RH  079%=      5-min Rain = 0
KCR2 251224Z 19013KT 22/18 A30 RMK A01 T02150176  RH  079%=      5-min Rain = 0
KCR2 251225Z 18014KT 22/18 A30 RMK A01 T02150176  RH  079%=      5-min Rain = 0
KCR2 251226Z 19015KT 22/18 A30 RMK A01 T02150176  RH  079%=      5-min Rain = 0
KCR2 251227Z 19013KT 22/18 A30 RMK A01 T02150176  RH  079%=      5-min Rain = 0
KCR2 251228Z 19013KT 22/18 A30 RMK A01 T02150176  RH  078%=      5-min Rain = 0
KCR2 251229Z 19013KT 22/18 A30 RMK A01 T02160177  RH  078%=      5-min Rain = 0
KCR2 251230Z 19012KT 22/18 A30 RMK A01 T02160176  RH  078%=      5-min Rain = 0
KCR2 251231Z 19016KT 22/18 A30 RMK A01 T02160177  RH  078%=      5-min Rain = 0
KCR2 251232Z 19017KT 22/18 A30 RMK A01 T02160177  RH  078%=      5-min Rain = 0
KCR2 251233Z 19013KT 22/18 A30 RMK A01 T02160177  RH  078%=      5-min Rain = 0
KCR2 251234Z 19011KT 22/18 A30 RMK A01 T02160177  RH  078%=      5-min Rain = 0
KCR2 251235Z 20010KT 22/18 A30 RMK A01 T02160177  RH  078%=      5-min Rain = 0
KCR2 251236Z 20011KT 22/18 A30 RMK A01 T02170177  RH  078%=      5-min Rain = 0
KCR2 251237Z 19014KT 22/18 A30 RMK A01 T02160177  RH  078%=      5-min Rain = 0
KCR2 251238Z 19015KT 22/18 A30 RMK A01 T02170177  RH  078%=      5-min Rain = 0
KCR2 251239Z 19014KT 22/18 A30 RMK A01 T02170177  RH  078%=      5-min Rain = 0
KCR2 251240Z 19014KT 22/18 A30 RMK A01 T02170177  RH  078%=      5-min Rain = 0
KCR2 251241Z 19012KT 22/18 A30 RMK A01 T02170177  RH  078%=      5-min Rain = 0
KCR2 251242Z 19010KT 22/18 A30 RMK A01 T02170177  RH  078%=      5-min Rain = 0
KCR2 251243Z 19013KT 22/18 A30 RMK A01 T02180177  RH  078%=      5-min Rain = 0
KCR2 251244Z 20013KT 22/18 A30 RMK A01 T02180177  RH  077%=      5-min Rain = 0
KCR2 251245Z 19014KT 22/18 A30 RMK A01 T02190177  RH  077%=      5-min Rain = 0
KCR2 251246Z 19015KT 22/18 A30 RMK A01 T02190177  RH  077%=      5-min Rain = 0
KCR2 251247Z 19014KT 22/18 A30 RMK A01 T02190177  RH  077%=      5-min Rain = 0
KCR2 251248Z 20016KT 22/18 A30 RMK A01 T02190177  RH  077%=      5-min Rain = 0
KCR2 251249Z 21014KT 22/18 A30 RMK A01 T02190177  RH  077%=      5-min Rain = 0
KCR2 251250Z 19014KT 22/18 A30 RMK A01 T02200177  RH  077%=      5-min Rain = 0
KCR2 251251Z 19014KT 22/18 A30 RMK A01 T02200177  RH  076%=      5-min Rain = 0
KCR2 251252Z 19013KT 22/18 A30 RMK A01 T02200177  RH  076%=      5-min Rain = 0
KCR2 251253Z 20014KT 22/18 A30 RMK A01 T02210177  RH  076%=      5-min Rain = 0
KCR2 251254Z 20012KT 22/18 A30 RMK A01 T02210177  RH  076%=      5-min Rain = 0
KCR2 251255Z 19016KT 22/18 A30 RMK A01 T02210177  RH  076%=      5-min Rain = 0
KCR2 251256Z 18014KT 22/18 A30 RMK A01 T02220177  RH  076%=      5-min Rain = 0
KCR2 251257Z 19015KT 22/18 A30 RMK A01 T02220177  RH  076%=      5-min Rain = 0
KCR2 251258Z 20013KT 22/18 A30 RMK A01 T02210177  RH  076%=      5-min Rain = 0
KCR2 251259Z 19011KT 22/18 A30 RMK A01 T02220177  RH  076%=      5-min Rain = 0
KCR2 251300Z 19014G19KT 22/18 A30 RMK A01 T02220177  RH  076%=      5-min Rain = 0
KCR2 251301Z 20014KT 22/18 A30 RMK A01 T02220177  RH  076%=      5-min Rain = 0
KCR2 251302Z 20014KT 22/18 A30 RMK A01 T02210177  RH  076%=      5-min Rain = 0
KCR2 251303Z 19014KT 22/18 A30 RMK A01 T02220177  RH  076%=      5-min Rain = 0
KCR2 251304Z 20011KT 22/18 A30 RMK A01 T02220177  RH  075%=      5-min Rain = 0
KCR2 251305Z 20014KT 22/18 A30 RMK A01 T02230178  RH  076%=      5-min Rain = 0
KCR2 251306Z 19014KT 22/18 A30 RMK A01 T02230177  RH  075%=      5-min Rain = 0
KCR2 251307Z 19014KT 22/18 A30 RMK A01 T02230177  RH  075%=      5-min Rain = 0
KCR2 251308Z 19014KT 22/18 A30 RMK A01 T02220177  RH  076%=      5-min Rain = 0
KCR2 251309Z 19012KT 22/18 A30 RMK A01 T02220177  RH  076%=      5-min Rain = 0
KCR2 251310Z 19014KT 22/18 A30 RMK A01 T02230178  RH  075%=      5-min Rain = 0
KCR2 251311Z 19015KT 22/18 A30 RMK A01 T02240177  RH  075%=      5-min Rain = 0
KCR2 251312Z 19016KT 22/18 A30 RMK A01 T02230177  RH  075%=      5-min Rain = 0
KCR2 251313Z 19014KT 22/18 A30 RMK A01 T02230177  RH  075%=      5-min Rain = 0
KCR2 251314Z 19015KT 22/18 A30 RMK A01 T02230177  RH  075%=      5-min Rain = 0
KCR2 251315Z 19012KT 22/18 A30 RMK A01 T02230177  RH  075%=      5-min Rain = 0
KCR2 251316Z 18016KT 23/18 A30 RMK A01 T02250178  RH  075%=      5-min Rain = 0
KCR2 251317Z 19014KT 22/18 A30 RMK A01 T02240177  RH  075%=      5-min Rain = 0
KCR2 251318Z 19017KT 22/18 A30 RMK A01 T02230177  RH  075%=      5-min Rain = 0
KCR2 251319Z 19015KT 22/18 A30 RMK A01 T02230177  RH  075%=      5-min Rain = 0
KCR2 251320Z 19014KT 22/18 A30 RMK A01 T02240178  RH  075%=      5-min Rain = 0
KCR2 251321Z 20012KT 22/18 A30 RMK A01 T02240177  RH  075%=      5-min Rain = 0
KCR2 251322Z 20012KT 22/18 A30 RMK A01 T02240178  RH  075%=      5-min Rain = 0
KCR2 251323Z 21013KT 23/18 A30 RMK A01 T02250178  RH  075%=      5-min Rain = 0
KCR2 251324Z 21014KT 23/18 A30 RMK A01 T02260178  RH  074%=      5-min Rain = 0
KCR2 251325Z 20011KT 23/18 A30 RMK A01 T02260178  RH  074%=      5-min Rain = 0
KCR2 251326Z 20016KT 23/18 A30 RMK A01 T02270178  RH  074%=      5-min Rain = 0
KCR2 251327Z 19015KT 23/18 A30 RMK A01 T02260178  RH  074%=      5-min Rain = 0
KCR2 251328Z 20012KT 23/18 A30 RMK A01 T02260178  RH  074%=      5-min Rain = 0
KCR2 251329Z 19012KT 23/18 A30 RMK A01 T02270178  RH  074%=      5-min Rain = 0
KCR2 251330Z 20013KT 23/18 A30 RMK A01 T02270178  RH  074%=      5-min Rain = 0
KCR2 251331Z 19016KT 23/18 A30 RMK A01 T02270178  RH  074%=      5-min Rain = 0
KCR2 251332Z 19016KT 23/18 A30 RMK A01 T02270178  RH  074%=      5-min Rain = 0
KCR2 251333Z 19014KT 23/18 A30 RMK A01 T02270178  RH  074%=      5-min Rain = 0
KCR2 251334Z 19014KT 23/18 A30 RMK A01 T02270178  RH  074%=      5-min Rain = 0
KCR2 251335Z 20013KT 23/18 A30 RMK A01 T02270178  RH  074%=      5-min Rain = 0
KCR2 251336Z 20014KT 23/18 A30 RMK A01 T02270178  RH  074%=      5-min Rain = 0
KCR2 251337Z 20014KT 23/18 A30 RMK A01 T02280178  RH  074%=      5-min Rain = 0
KCR2 251338Z 19015KT 23/18 A30 RMK A01 T02280178  RH  074%=      5-min Rain = 0
KCR2 251339Z 20015KT 23/18 A30 RMK A01 T02290178  RH  073%=      5-min Rain = 0
KCR2 251340Z 19011G16KT 23/18 A30 RMK A01 T02290178  RH  073%=      5-min Rain = 0
KCR2 251341Z 19012KT 23/18 A30 RMK A01 T02300179  RH  073%=      5-min Rain = 0
KCR2 251342Z 19010KT 23/18 A30 RMK A01 T02320179  RH  072%=      5-min Rain = 0
KCR2 251343Z 20012KT 23/18 A30 RMK A01 T02320180  RH  072%=      5-min Rain = 0
KCR2 251344Z 19012KT 23/18 A30 RMK A01 T02330179  RH  072%=      5-min Rain = 0
KCR2 251345Z 20013KT 23/18 A2999 RMK A01 T02320179  RH  072%=      5-min Rain = 0
KCR2 251346Z 19012KT 23/18 A2999 RMK A01 T02310178  RH  072%=      5-min Rain = 0
KCR2 251347Z 20013KT 23/18 A2999 RMK A01 T02300179  RH  073%=      5-min Rain = 0
KCR2 251348Z 21014KT 23/18 A2999 RMK A01 T02310179  RH  072%=      5-min Rain = 0
KCR2 251349Z 21013KT 23/18 A30 RMK A01 T02320179  RH  072%=      5-min Rain = 0
KCR2 251350Z 21011KT 23/18 A2999 RMK A01 T02330179  RH  072%=      5-min Rain = 0
KCR2 251351Z 20011KT 23/18 A2999 RMK A01 T02340180  RH  072%=      5-min Rain = 0
KCR2 251352Z 21013KT 24/18 A2999 RMK A01 T02350179  RH  071%=      5-min Rain = 0
KCR2 251353Z 22013KT 24/18 A2999 RMK A01 T02360179  RH  071%=      5-min Rain = 0
KCR2 251354Z 22013KT 24/18 A2999 RMK A01 T02360180  RH  071%=      5-min Rain = 0
KCR2 251355Z 22015KT 24/18 A2999 RMK A01 T02360179  RH  070%=      5-min Rain = 0
KCR2 251356Z 22013KT 24/18 A2999 RMK A01 T02350178  RH  070%=      5-min Rain = 0
KCR2 251357Z 22013KT 24/18 A2999 RMK A01 T02350178  RH  070%=      5-min Rain = 0
KCR2 251358Z 22012KT 24/18 A2999 RMK A01 T02350179  RH  071%=      5-min Rain = 0
KCR2 251359Z 22013KT 24/18 A2999 RMK A01 T02370180  RH  070%=      5-min Rain = 0
KCR2 251400Z 22014KT 24/18 A30 RMK A01 T02380180  RH  070%=      5-min Rain = 0
KCR2 251401Z 22011KT 24/18 A2999 RMK A01 T02380179  RH  069%=      5-min Rain = 0
KCR2 251402Z 21011KT 24/18 A2999 RMK A01 T02390180  RH  070%=      5-min Rain = 0
KCR2 251403Z 21012KT 24/18 A2999 RMK A01 T02390179  RH  069%=      5-min Rain = 0
KCR2 251404Z 21013KT 24/18 A2999 RMK A01 T02390179  RH  069%=      5-min Rain = 0
KCR2 251405Z 21014KT 24/18 A2999 RMK A01 T02390179  RH  069%=      5-min Rain = 0
KCR2 251406Z 22014KT 24/18 A2999 RMK A01 T02390179  RH  069%=      5-min Rain = 0
KCR2 251407Z 22013KT 24/18 A2999 RMK A01 T02380178  RH  069%=      5-min Rain = 0
KCR2 251408Z 22012KT 24/18 A2999 RMK A01 T02380179  RH  070%=      5-min Rain = 0
KCR2 251409Z 22014KT 24/18 A30 RMK A01 T02400180  RH  069%=      5-min Rain = 0
KCR2 251410Z 22014KT 24/18 A30 RMK A01 T02400178  RH  068%=      5-min Rain = 0
KCR2 251411Z 23013KT 24/18 A30 RMK A01 T02390179  RH  069%=      5-min Rain = 0
KCR2 251412Z 23014KT 24/18 A30 RMK A01 T02400179  RH  069%=      5-min Rain = 0
KCR2 251413Z 22013KT 24/18 A30 RMK A01 T02400179  RH  069%=      5-min Rain = 0
KCR2 251414Z 22016KT 24/18 A30 RMK A01 T02390178  RH  068%=      5-min Rain = 0
KCR2 251415Z 21013KT 24/18 A30 RMK A01 T02400177  RH  068%=      5-min Rain = 0
KCR2 251416Z 21012KT 24/18 A30 RMK A01 T02400177  RH  068%=      5-min Rain = 0
KCR2 251417Z 22012KT 24/18 A30 RMK A01 T02400178  RH  068%=      5-min Rain = 0
KCR2 251418Z 22011KT 24/18 A30 RMK A01 T02400178  RH  068%=      5-min Rain = 0
KCR2 251419Z 22011KT 24/18 A30 RMK A01 T02410178  RH  068%=      5-min Rain = 0
KCR2 251420Z 21012KT 24/18 A30 RMK A01 T02420178  RH  068%=      5-min Rain = 0
KCR2 251421Z 21012KT 24/18 A30 RMK A01 T02430178  RH  067%=      5-min Rain = 0
KCR2 251422Z 20011KT 24/18 A30 RMK A01 T02420178  RH  067%=      5-min Rain = 0
KCR2 251423Z 21011KT 24/18 A30 RMK A01 T02420178  RH  067%=      5-min Rain = 0
KCR2 251424Z 22010KT 24/18 A30 RMK A01 T02420178  RH  067%=      5-min Rain = 0
KCR2 251425Z 21010KT 24/18 A30 RMK A01 T02420178  RH  068%=      5-min Rain = 0
KCR2 251426Z 21009KT 24/18 A30 RMK A01 T02420179  RH  068%=      5-min Rain = 0
KCR2 251427Z 21008KT 24/18 A30 RMK A01 T02420179  RH  067%=      5-min Rain = 0
KCR2 251428Z 21006KT 24/18 A30 RMK A01 T02430180  RH  068%=      5-min Rain = 0
KCR2 251429Z 21009G14KT 25/18 A30 RMK A01 T02450179  RH  067%=      5-min Rain = 0
KCR2 251430Z 22011KT 25/18 A30 RMK A01 T02460179  RH  066%=      5-min Rain = 0
KCR2 251431Z 22011KT 25/18 A30 RMK A01 T02470178  RH  066%=      5-min Rain = 0
KCR2 251432Z 23011KT 25/18 A30 RMK A01 T02470178  RH  065%=      5-min Rain = 0
KCR2 251433Z 23013KT 25/18 A30 RMK A01 T02470178  RH  065%=      5-min Rain = 0
KCR2 251434Z 23012KT 25/18 A30 RMK A01 T02460178  RH  066%=      5-min Rain = 0
KCR2 251435Z 21010KT 25/18 A30 RMK A01 T02460178  RH  066%=      5-min Rain = 0
KCR2 251436Z 21011KT 25/18 A30 RMK A01 T02460178  RH  066%=      5-min Rain = 0
KCR2 251437Z 22010KT 25/18 A30 RMK A01 T02470179  RH  066%=      5-min Rain = 0
KCR2 251438Z 22011KT 25/18 A30 RMK A01 T02480179  RH  065%=      5-min Rain = 0
KCR2 251439Z 20011KT 25/18 A30 RMK A01 T02490179  RH  065%=      5-min Rain = 0
KCR2 251440Z 21010KT 25/18 A30 RMK A01 T02510178  RH  064%=      5-min Rain = 0
KCR2 251441Z 22010KT 25/18 A30 RMK A01 T02540178  RH  063%=      5-min Rain = 0
KCR2 251442Z 22013KT 25/18 A2999 RMK A01 T02530178  RH  063%=      5-min Rain = 0
KCR2 251443Z 22014KT 25/18 A2999 RMK A01 T02520177  RH  063%=      5-min Rain = 0
KCR2 251444Z 21011KT 25/18 A2999 RMK A01 T02520177  RH  063%=      5-min Rain = 0
KCR2 251445Z 22010KT 25/18 A2999 RMK A01 T02540178  RH  063%=      5-min Rain = 0
KCR2 251446Z 21008KT 26/18 A2999 RMK A01 T02550179  RH  063%=      5-min Rain = 0
KCR2 251447Z 20011KT 26/18 A2999 RMK A01 T02570179  RH  062%=      5-min Rain = 0
KCR2 251448Z 21012KT 26/18 A2999 RMK A01 T02580178  RH  061%=      5-min Rain = 0
KCR2 251449Z 22010KT 26/18 A2999 RMK A01 T02580178  RH  061%=      5-min Rain = 0
KCR2 251450Z 20010KT 26/18 A2999 RMK A01 T02580180  RH  062%=      5-min Rain = 0
KCR2 251451Z 22009KT 26/18 A2999 RMK A01 T02580178  RH  061%=      5-min Rain = 0
KCR2 251452Z 23008KT 26/18 A2999 RMK A01 T02560179  RH  062%=      5-min Rain = 0
KCR2 251453Z 21010KT 26/18 A2999 RMK A01 T02570179  RH  062%=      5-min Rain = 0
KCR2 251454Z 21009KT 26/18 A2999 RMK A01 T02570179  RH  062%=      5-min Rain = 0
KCR2 251455Z 20009KT 26/18 A2999 RMK A01 T02580180  RH  062%=      5-min Rain = 0
KCR2 251456Z 20011KT 26/18 A2999 RMK A01 T02610179  RH  061%=      5-min Rain = 0
KCR2 251457Z 20008KT 26/18 A2999 RMK A01 T02600178  RH  061%=      5-min Rain = 0
KCR2 251458Z 22008KT 26/18 A2999 RMK A01 T02590178  RH  061%=      5-min Rain = 0
KCR2 251459Z 22009KT 26/18 A2999 RMK A01 T02580179  RH  062%=      5-min Rain = 0
KCR2 251500Z 22013KT 26/18 A2999 RMK A01 T02600176  RH  060%=      5-min Rain = 0
KCR2 251501Z 21010KT 26/18 A2999 RMK A01 T02590175  RH  060%=      5-min Rain = 0
KCR2 251502Z 22010KT 26/18 A2999 RMK A01 T02580176  RH  061%=      5-min Rain = 0
KCR2 251503Z 21010KT 26/18 A2999 RMK A01 T02580177  RH  061%=      5-min Rain = 0
KCR2 251504Z 21010KT 26/18 A2999 RMK A01 T02610177  RH  060%=      5-min Rain = 0
KCR2 251505Z 23007KT 26/18 A2999 RMK A01 T02630178  RH  060%=      5-min Rain = 0
KCR2 251506Z 24012KT 26/18 A2999 RMK A01 T02630177  RH  059%=      5-min Rain = 0
KCR2 251507Z 22010KT 26/18 A2999 RMK A01 T02620177  RH  059%=      5-min Rain = 0
KCR2 251508Z 21014KT 26/18 A2999 RMK A01 T02630177  RH  059%=      5-min Rain = 0
KCR2 251509Z 21012KT 26/18 A2999 RMK A01 T02630176  RH  059%=      5-min Rain = 0
KCR2 251510Z 20011KT 26/18 A2999 RMK A01 T02630175  RH  059%=      5-min Rain = 0
KCR2 251511Z 20011KT 26/18 A2999 RMK A01 T02620175  RH  059%=      5-min Rain = 0
KCR2 251512Z 20011KT 26/18 A2999 RMK A01 T02640175  RH  058%=      5-min Rain = 0
KCR2 251513Z 21012KT 27/18 A2999 RMK A01 T02650175  RH  058%=      5-min Rain = 0
KCR2 251514Z 21011KT 26/17 A2999 RMK A01 T02630174  RH  058%=      5-min Rain = 0
KCR2 251515Z 20011KT 26/18 A2999 RMK A01 T02610175  RH  059%=      5-min Rain = 0
KCR2 251516Z 19011KT 26/18 A2999 RMK A01 T02620175  RH  059%=      5-min Rain = 0
KCR2 251517Z 20010KT 26/17 A2999 RMK A01 T02620174  RH  058%=      5-min Rain = 0
KCR2 251518Z 21012KT 26/18 A2999 RMK A01 T02620176  RH  059%=      5-min Rain = 0
KCR2 251519Z 21011KT 26/18 A2999 RMK A01 T02620176  RH  059%=      5-min Rain = 0
KCR2 251520Z 21010KT 26/18 A2999 RMK A01 T02610176  RH  059%=      5-min Rain = 0
KCR2 251521Z 20009KT 26/18 A2999 RMK A01 T02620176  RH  059%=      5-min Rain = 0
KCR2 251522Z 20011KT 26/18 A2999 RMK A01 T02640176  RH  058%=      5-min Rain = 0
KCR2 251523Z 20011KT 27/18 A2999 RMK A01 T02660176  RH  058%=      5-min Rain = 0
KCR2 251524Z 22011KT 27/18 A2999 RMK A01 T02670176  RH  057%=      5-min Rain = 0
KCR2 251525Z 22011KT 27/18 A2999 RMK A01 T02670175  RH  057%=      5-min Rain = 0
KCR2 251526Z 21011KT 27/18 A2999 RMK A01 T02670176  RH  057%=      5-min Rain = 0
KCR2 251527Z 20012KT 27/17 A2999 RMK A01 T02660174  RH  057%=      5-min Rain = 0
KCR2 251528Z 19011KT 27/17 A2999 RMK A01 T02650173  RH  057%=      5-min Rain = 0
KCR2 251529Z 19010KT 27/17 A2999 RMK A01 T02650173  RH  057%=      5-min Rain = 0
KCR2 251530Z 20011KT 27/18 A2999 RMK A01 T02690177  RH  057%=      5-min Rain = 0
KCR2 251531Z 21012KT 27/18 A2999 RMK A01 T02740176  RH  055%=      5-min Rain = 0
KCR2 251532Z 20011KT 27/17 A2999 RMK A01 T02700174  RH  056%=      5-min Rain = 0
KCR2 251533Z 19009KT 27/17 A2999 RMK A01 T02690174  RH  056%=      5-min Rain = 0
KCR2 251534Z 20010KT 27/18 A2999 RMK A01 T02690175  RH  056%=      5-min Rain = 0
KCR2 251535Z 23008KT 27/18 A2999 RMK A01 T02710176  RH  056%=      5-min Rain = 0
KCR2 251536Z 21010KT 27/18 A2999 RMK A01 T02740178  RH  056%=      5-min Rain = 0
KCR2 251537Z 22008KT 28/18 A2999 RMK A01 T02760177  RH  055%=      5-min Rain = 0
KCR2 251538Z 22011KT 28/18 A2999 RMK A01 T02780177  RH  054%=      5-min Rain = 0
KCR2 251539Z 20010KT 28/18 A2999 RMK A01 T02760175  RH  054%=      5-min Rain = 0
KCR2 251540Z 22007KT 27/17 A2999 RMK A01 T02740174  RH  054%=      5-min Rain = 0
KCR2 251541Z 23011KT 28/18 A2999 RMK A01 T02750175  RH  054%=      5-min Rain = 0
KCR2 251542Z 23009KT 27/17 A2999 RMK A01 T02740171  RH  053%=      5-min Rain = 0
KCR2 251543Z 23009KT 27/17 A2999 RMK A01 T02710174  RH  055%=      5-min Rain = 0
KCR2 251544Z 23010KT 27/17 A2999 RMK A01 T02720174  RH  055%=      5-min Rain = 0
KCR2 251545Z 22008KT 27/17 A2999 RMK A01 T02720174  RH  055%=      5-min Rain = 0
KCR2 251546Z 22006KT 27/17 A2999 RMK A01 T02720172  RH  054%=      5-min Rain = 0
KCR2 251547Z 22005KT 27/17 A2999 RMK A01 T02710171  RH  055%=      5-min Rain = 0
KCR2 251548Z 23006KT 27/17 A2999 RMK A01 T02690173  RH  055%=      5-min Rain = 0
KCR2 251549Z 23010KT 27/17 A2999 RMK A01 T02710174  RH  055%=      5-min Rain = 0
KCR2 251550Z 22009KT 27/17 A2999 RMK A01 T02730174  RH  055%=      5-min Rain = 0
KCR2 251551Z 22008KT 28/18 A2999 RMK A01 T02750175  RH  054%=      5-min Rain = 0
KCR2 251552Z 23007KT 28/18 A2999 RMK A01 T02760175  RH  054%=      5-min Rain = 0
KCR2 251553Z 24009KT 28/17 A2999 RMK A01 T02760174  RH  054%=      5-min Rain = 0
KCR2 251554Z 24007KT 28/18 A2999 RMK A01 T02760175  RH  054%=      5-min Rain = 0
KCR2 251555Z 24007KT 28/17 A2999 RMK A01 T02770173  RH  053%=      5-min Rain = 0
KCR2 251556Z 24006KT 27/17 A2999 RMK A01 T02740173  RH  054%=      5-min Rain = 0
KCR2 251557Z 22006KT 28/17 A2999 RMK A01 T02750174  RH  054%=      5-min Rain = 0
KCR2 251558Z 22006KT 28/18 A2999 RMK A01 T02760175  RH  054%=      5-min Rain = 0
KCR2 251559Z 24006KT 28/18 A2999 RMK A01 T02770175  RH  054%=      5-min Rain = 0
KCR2 251600Z 22008KT 28/18 A2999 RMK A01 T02800177  RH  053%=      5-min Rain = 0
KCR2 251601Z 22007KT 28/18 A2999 RMK A01 T02820175  RH  052%=      5-min Rain = 0
KCR2 251602Z 22007KT 28/17 A2998 RMK A01 T02810174  RH  052%=      5-min Rain = 0
KCR2 251603Z 23007KT 28/17 A2998 RMK A01 T02790174  RH  053%=      5-min Rain = 0
KCR2 251604Z 24004KT 28/17 A2998 RMK A01 T02780173  RH  053%=      5-min Rain = 0
KCR2 251605Z 22007KT 28/17 A2998 RMK A01 T02770173  RH  053%=      5-min Rain = 0
KCR2 251606Z 20009KT 28/18 A2998 RMK A01 T02800175  RH  053%=      5-min Rain = 0
KCR2 251607Z 22008KT 28/18 A2998 RMK A01 T02840175  RH  052%=      5-min Rain = 0
KCR2 251608Z 22006KT 29/18 A2999 RMK A01 T02850177  RH  052%=      5-min Rain = 0
KCR2 251609Z 24004KT 29/18 A2998 RMK A01 T02870175  RH  051%=      5-min Rain = 0
KCR2 251610Z 25006KT 29/17 A2998 RMK A01 T02880173  RH  050%=      5-min Rain = 0
KCR2 251611Z 26007KT 29/17 A2998 RMK A01 T02890173  RH  050%=      5-min Rain = 0
KCR2 251612Z 23010KT 29/17 A2998 RMK A01 T02890173  RH  049%=      5-min Rain = 0
KCR2 251613Z 23009KT 29/17 A2998 RMK A01 T02880171  RH  049%=      5-min Rain = 0
KCR2 251614Z 25008KT 29/17 A2999 RMK A01 T02850170  RH  050%=      5-min Rain = 0
KCR2 251615Z 26007KT 28/17 A2999 RMK A01 T02830170  RH  050%=      5-min Rain = 0
KCR2 251616Z 25008KT 28/17 A2999 RMK A01 T02820170  RH  051%=      5-min Rain = 0
KCR2 251617Z 26007KT 28/17 A2999 RMK A01 T02820171  RH  051%=      5-min Rain = 0
KCR2 251618Z 25005KT 28/17 A2998 RMK A01 T02820171  RH  051%=      5-min Rain = 0
KCR2 251619Z 26008KT 28/17 A2998 RMK A01 T02830171  RH  051%=      5-min Rain = 0
KCR2 251620Z 25004KT 28/17 A2998 RMK A01 T02830171  RH  050%=      5-min Rain = 0
KCR2 251621Z 26007KT 29/17 A2998 RMK A01 T02850172  RH  050%=      5-min Rain = 0
KCR2 251622Z 26008KT 29/17 A2998 RMK A01 T02870171  RH  050%=      5-min Rain = 0
KCR2 251623Z 25006KT 29/17 A2998 RMK A01 T02870169  RH  049%=      5-min Rain = 0
KCR2 251624Z 26007KT 29/17 A2998 RMK A01 T02880169  RH  049%=      5-min Rain = 0
KCR2 251625Z 25005KT 29/17 A2998 RMK A01 T02890168  RH  048%=      5-min Rain = 0
KCR2 251626Z 21006KT 29/17 A2998 RMK A01 T02880169  RH  049%=      5-min Rain = 0
KCR2 251627Z 20006KT 29/17 A2998 RMK A01 T02920170  RH  048%=      5-min Rain = 0
KCR2 251628Z 21008KT 29/17 A2998 RMK A01 T02930171  RH  048%=      5-min Rain = 0
KCR2 251629Z 22006KT 29/17 A2998 RMK A01 T02920169  RH  048%=      5-min Rain = 0
KCR2 251630Z 20005KT 29/17 A2998 RMK A01 T02880168  RH  048%=      5-min Rain = 0
KCR2 251631Z 22006KT 29/17 A2998 RMK A01 T02880170  RH  049%=      5-min Rain = 0
KCR2 251632Z 20007KT 29/17 A2998 RMK A01 T02910170  RH  048%=      5-min Rain = 0
KCR2 251633Z 21007KT 29/17 A2998 RMK A01 T02910168  RH  048%=      5-min Rain = 0
KCR2 251634Z 24004KT 29/17 A2998 RMK A01 T02920168  RH  047%=      5-min Rain = 0
KCR2 251635Z 26005KT 29/17 A2998 RMK A01 T02900169  RH  048%=      5-min Rain = 0
KCR2 251636Z 25005KT 29/17 A2998 RMK A01 T02900170  RH  048%=      5-min Rain = 0
KCR2 251637Z 25005KT 29/17 A2998 RMK A01 T02930171  RH  048%=      5-min Rain = 0
KCR2 251638Z 26004KT 29/17 A2998 RMK A01 T02920171  RH  048%=      5-min Rain = 0
KCR2 251639Z 25004KT 29/17 A2998 RMK A01 T02920169  RH  048%=      5-min Rain = 0
KCR2 251640Z 24006KT 29/17 A2998 RMK A01 T02920169  RH  048%=      5-min Rain = 0
KCR2 251641Z 24005KT 29/17 A2998 RMK A01 T02940167  RH  046%=      5-min Rain = 0
KCR2 251642Z 23008KT 29/17 A2998 RMK A01 T02940167  RH  046%=      5-min Rain = 0
KCR2 251643Z 22005KT 29/17 A2998 RMK A01 T02930165  RH  046%=      5-min Rain = 0
KCR2 251644Z 21006KT 29/17 A2998 RMK A01 T02940166  RH  046%=      5-min Rain = 0
KCR2 251645Z 23005KT 30/17 A2998 RMK A01 T02950167  RH  046%=      5-min Rain = 0
KCR2 251646Z 27004KT 30/17 A2998 RMK A01 T02980169  RH  046%=      5-min Rain = 0
KCR2 251647Z 24007KT 30/17 A2998 RMK A01 T03010170  RH  045%=      5-min Rain = 0
KCR2 251648Z 23006KT 30/17 A2998 RMK A01 T03020170  RH  045%=      5-min Rain = 0
KCR2 251649Z 24003KT 30/17 A2998 RMK A01 T03010169  RH  045%=      5-min Rain = 0
KCR2 251650Z 25004KT 30/17 A2998 RMK A01 T03010169  RH  045%=      5-min Rain = 0
KCR2 251651Z 25003KT 30/17 A2998 RMK A01 T03000169  RH  045%=      5-min Rain = 0
KCR2 251652Z 15003KT 30/17 A2998 RMK A01 T03000170  RH  046%=      5-min Rain = 0
KCR2 251653Z 21006KT 30/17 A2998 RMK A01 T03020169  RH  045%=      5-min Rain = 0
KCR2 251654Z 22005KT 30/16 A2998 RMK A01 T03030162  RH  043%=      5-min Rain = 0
KCR2 251655Z 22006KT 31/16 A2998 RMK A01 T03070161  RH  041%=      5-min Rain = 0
KCR2 251656Z 23006KT 31/16 A2998 RMK A01 T03070161  RH  042%=      5-min Rain = 0
KCR2 251657Z 24005KT 30/16 A2998 RMK A01 T03040164  RH  043%=      5-min Rain = 0
KCR2 251658Z 25006KT 30/17 A2998 RMK A01 T03040167  RH  044%=      5-min Rain = 0
KCR2 251659Z 27006KT 31/17 A2998 RMK A01 T03060168  RH  043%=      5-min Rain = 0
KCR2 251700Z 26006KT 31/17 A2998 RMK A01 T03070168  RH  043%=      5-min Rain = 0
KCR2 251701Z 26005KT 31/17 A2998 RMK A01 T03080168  RH  043%=      5-min Rain = 0
KCR2 251702Z 28003KT 31/17 A2998 RMK A01 T03090168  RH  043%=      5-min Rain = 0
KCR2 251703Z 29002KT 31/17 A2998 RMK A01 T03080169  RH  043%=      5-min Rain = 0
KCR2 251704Z 25002KT 31/17 A2998 RMK A01 T03090169  RH  043%=      5-min Rain = 0
KCR2 251705Z 23004KT 31/17 A2998 RMK A01 T03100169  RH  043%=      5-min Rain = 0
KCR2 251706Z 21004KT 31/17 A2998 RMK A01 T03100170  RH  043%=      5-min Rain = 0
KCR2 251707Z 23004KT 31/17 A2998 RMK A01 T03100170  RH  043%=      5-min Rain = 0
KCR2 251708Z 19005KT 31/17 A2998 RMK A01 T03100171  RH  043%=      5-min Rain = 0
KCR2 251709Z 20005KT 31/17 A2998 RMK A01 T03120170  RH  043%=      5-min Rain = 0
KCR2 251710Z 19006KT 31/17 A2998 RMK A01 T03120167  RH  042%=      5-min Rain = 0
KCR2 251711Z 17005KT 31/17 A2998 RMK A01 T03090166  RH  042%=      5-min Rain = 0
KCR2 251712Z 14004KT 31/17 A2998 RMK A01 T03090166  RH  042%=      5-min Rain = 0
KCR2 251713Z 14006KT 31/17 A2998 RMK A01 T03110166  RH  042%=      5-min Rain = 0
KCR2 251714Z 33006KT 31/17 A2997 RMK A01 T03130167  RH  041%=      5-min Rain = 0
KCR2 251715Z 25006KT 32/17 A2998 RMK A01 T03160165  RH  040%=      5-min Rain = 0
KCR2 251716Z 22002KT 32/16 A2998 RMK A01 T03150164  RH  040%=      5-min Rain = 0
KCR2 251717Z 18004KT 32/17 A2998 RMK A01 T03150165  RH  041%=      5-min Rain = 0
KCR2 251718Z 18006KT 32/17 A2998 RMK A01 T03150165  RH  040%=      5-min Rain = 0
KCR2 251719Z 18007KT 31/16 A2998 RMK A01 T03140164  RH  041%=      5-min Rain = 0
KCR2 251720Z 19006KT 31/16 A2998 RMK A01 T03130161  RH  040%=      5-min Rain = 0
KCR2 251721Z 18001KT 31/16 A2998 RMK A01 T03120161  RH  040%=      5-min Rain = 0
KCR2 251722Z 18001KT 31/16 A2998 RMK A01 T03110162  RH  041%=      5-min Rain = 0
KCR2 251723Z 23001KT 31/16 A2998 RMK A01 T03120163  RH  041%=      5-min Rain = 0
KCR2 251724Z 23001KT 31/16 A2998 RMK A01 T03130164  RH  041%=      5-min Rain = 0
KCR2 251725Z 14004KT 31/17 A2998 RMK A01 T03140165  RH  041%=      5-min Rain = 0
KCR2 251726Z 15003KT 32/16 A2998 RMK A01 T03150164  RH  040%=      5-min Rain = 0
KCR2 251727Z 11003KT 32/17 A2998 RMK A01 T03150165  RH  041%=      5-min Rain = 0
KCR2 251728Z 17005KT 32/17 A2998 RMK A01 T03150167  RH  041%=      5-min Rain = 0
KCR2 251729Z 18007KT 32/17 A2998 RMK A01 T03180166  RH  040%=      5-min Rain = 0
KCR2 251730Z 19006KT 32/17 A2998 RMK A01 T03190166  RH  040%=      5-min Rain = 0
KCR2 251731Z 16007KT 32/17 A2998 RMK A01 T03180166  RH  040%=      5-min Rain = 0
KCR2 251732Z 15006KT 32/17 A2998 RMK A01 T03190170  RH  041%=      5-min Rain = 0
KCR2 251733Z 14005KT 32/17 A2998 RMK A01 T03190170  RH  041%=      5-min Rain = 0
KCR2 251734Z 11005KT 32/17 A2998 RMK A01 T03190171  RH  041%=      5-min Rain = 0
KCR2 251735Z 15008KT 32/17 A2998 RMK A01 T03210170  RH  041%=      5-min Rain = 0
KCR2 251736Z 18007KT 32/17 A2998 RMK A01 T03240166  RH  039%=      5-min Rain = 0
KCR2 251737Z 16006KT 33/17 A2998 RMK A01 T03250167  RH  039%=      5-min Rain = 0
KCR2 251738Z 15006KT 32/17 A2998 RMK A01 T03230166  RH  039%=      5-min Rain = 0
KCR2 251739Z 13007KT 32/17 A2998 RMK A01 T03210166  RH  039%=      5-min Rain = 0
KCR2 251740Z 14006KT 32/17 A2998 RMK A01 T03210166  RH  039%=      5-min Rain = 0
KCR2 251741Z 13006KT 32/17 A2998 RMK A01 T03200166  RH  040%=      5-min Rain = 0
KCR2 251742Z 12004KT 32/17 A2998 RMK A01 T03170166  RH  040%=      5-min Rain = 0
KCR2 251743Z 13004KT 32/17 A2998 RMK A01 T03180167  RH  040%=      5-min Rain = 0
KCR2 251744Z 17008KT 32/17 A2998 RMK A01 T03190166  RH  040%=      5-min Rain = 0
KCR2 251745Z 18008KT 32/16 A2998 RMK A01 T03200163  RH  039%=      5-min Rain = 0
KCR2 251746Z 16009KT 32/16 A2998 RMK A01 T03220163  RH  039%=      5-min Rain = 0
KCR2 251747Z 16009KT 33/16 A2997 RMK A01 T03250163  RH  038%=      5-min Rain = 0
KCR2 251748Z 18008KT 32/16 A2998 RMK A01 T03240162  RH  038%=      5-min Rain = 0
KCR2 251749Z 16008KT 32/16 A2998 RMK A01 T03220162  RH  038%=      5-min Rain = 0
KCR2 251750Z 16006KT 32/16 A2998 RMK A01 T03240161  RH  038%=      5-min Rain = 0
KCR2 251751Z 18005KT 32/16 A2998 RMK A01 T03220159  RH  038%=      5-min Rain = 0
KCR2 251752Z 17006KT 32/16 A2997 RMK A01 T03200158  RH  038%=      5-min Rain = 0
KCR2 251753Z 16005KT 32/16 A2997 RMK A01 T03200158  RH  038%=      5-min Rain = 0
KCR2 251754Z 18002KT 32/16 A2997 RMK A01 T03220157  RH  037%=      5-min Rain = 0
KCR2 251755Z 19002G7KT 32/16 A2997 RMK A01 T03220158  RH  037%=      5-min Rain = 0
KCR2 251756Z 18007KT 32/16 A2997 RMK A01 T03240162  RH  038%=      5-min Rain = 0
KCR2 251757Z 17005KT 33/16 A2997 RMK A01 T03250163  RH  038%=      5-min Rain = 0
KCR2 251758Z 19005KT 33/16 A2997 RMK A01 T03250164  RH  038%=      5-min Rain = 0
KCR2 251759Z 19005KT 32/16 A2997 RMK A01 T03240164  RH  038%=      5-min Rain = 0
KCR2 251800Z 17009KT 33/17 A2997 RMK A01 T03250166  RH  039%=      5-min Rain = 0
KCR2 251801Z 17009KT 33/17 A2997 RMK A01 T03280166  RH  038%=      5-min Rain = 0
KCR2 251802Z 18010KT 33/17 A2997 RMK A01 T03280166  RH  038%=      5-min Rain = 0
KCR2 251803Z 17007KT 33/16 A2997 RMK A01 T03290164  RH  037%=      5-min Rain = 0
KCR2 251804Z 17009KT 33/17 A2997 RMK A01 T03280165  RH  038%=      5-min Rain = 0
KCR2 251805Z 16008KT 33/16 A2997 RMK A01 T03290163  RH  037%=      5-min Rain = 0
KCR2 251806Z 15008KT 33/16 A2997 RMK A01 T03280162  RH  037%=      5-min Rain = 0
KCR2 251807Z 14010KT 33/16 A2997 RMK A01 T03270163  RH  037%=      5-min Rain = 0
KCR2 251808Z 14009KT 33/16 A2997 RMK A01 T03290162  RH  037%=      5-min Rain = 0
KCR2 251809Z 13008KT 33/16 A2997 RMK A01 T03290160  RH  036%=      5-min Rain = 0
KCR2 251810Z 14007KT 33/16 A2997 RMK A01 T03280160  RH  037%=      5-min Rain = 0
KCR2 251811Z 15008KT 33/16 A2997 RMK A01 T03300161  RH  036%=      5-min Rain = 0
KCR2 251812Z 15007KT 34/16 A2997 RMK A01 T03350161  RH  035%=      5-min Rain = 0
KCR2 251813Z 13006KT 33/16 A2997 RMK A01 T03340160  RH  035%=      5-min Rain = 0
KCR2 251814Z 09004KT 33/16 A2997 RMK A01 T03310159  RH  036%=      5-min Rain = 0
KCR2 251815Z 11005KT 33/16 A2997 RMK A01 T03310159  RH  036%=      5-min Rain = 0
KCR2 251816Z 14009KT 33/16 A2997 RMK A01 T03320158  RH  035%=      5-min Rain = 0
KCR2 251817Z 16008KT 33/16 A2997 RMK A01 T03320155  RH  034%=      5-min Rain = 0
KCR2 251818Z 16005KT 33/16 A2997 RMK A01 T03310155  RH  035%=      5-min Rain = 0
KCR2 251819Z 15006KT 33/16 A2997 RMK A01 T03310156  RH  035%=      5-min Rain = 0
KCR2 251820Z 16007KT 33/16 A2997 RMK A01 T03330159  RH  035%=      5-min Rain = 0
KCR2 251821Z 15011KT 34/16 A2997 RMK A01 T03370156  RH  034%=      5-min Rain = 0
KCR2 251822Z 14008KT 34/16 A2997 RMK A01 T03380155  RH  033%=      5-min Rain = 0
KCR2 251823Z 12003KT 34/16 A2997 RMK A01 T03370155  RH  034%=      5-min Rain = 0
KCR2 251824Z 14006KT 34/16 A2997 RMK A01 T03360156  RH  034%=      5-min Rain = 0
KCR2 251825Z 16006KT 34/16 A2997 RMK A01 T03380157  RH  034%=      5-min Rain = 0
KCR2 251826Z 16006KT 34/16 A2997 RMK A01 T03380157  RH  034%=      5-min Rain = 0
KCR2 251827Z 16008KT 34/16 A2997 RMK A01 T03380159  RH  034%=      5-min Rain = 0
KCR2 251828Z 13010KT 34/16 A2997 RMK A01 T03390159  RH  034%=      5-min Rain = 0
KCR2 251829Z 14006KT 34/16 A2997 RMK A01 T03390158  RH  034%=      5-min Rain = 0
KCR2 251830Z 14003KT 34/16 A2997 RMK A01 T03360157  RH  034%=      5-min Rain = 0
KCR2 251831Z 13004KT 34/16 A2997 RMK A01 T03350158  RH  035%=      5-min Rain = 0
KCR2 251832Z 13003KT 34/16 A2997 RMK A01 T03360158  RH  034%=      5-min Rain = 0
KCR2 251833Z 08006KT 34/16 A2996 RMK A01 T03380157  RH  034%=      5-min Rain = 0
KCR2 251834Z 13008KT 34/16 A2996 RMK A01 T03400158  RH  034%=      5-min Rain = 0
KCR2 251835Z 14007KT 34/16 A2996 RMK A01 T03440157  RH  033%=      5-min Rain = 0
KCR2 251836Z 14007KT 35/16 A2997 RMK A01 T03450156  RH  032%=      5-min Rain = 0
KCR2 251837Z 15003KT 34/15 A2997 RMK A01 T03420154  RH  032%=      5-min Rain = 0
KCR2 251838Z 15004KT 34/15 A2996 RMK A01 T03390154  RH  033%=      5-min Rain = 0
KCR2 251839Z 16005KT 34/16 A2996 RMK A01 T03390155  RH  033%=      5-min Rain = 0
KCR2 251840Z 15006KT 34/16 A2996 RMK A01 T03430158  RH  033%=      5-min Rain = 0
KCR2 251841Z 15009KT 35/16 A2996 RMK A01 T03480159  RH  032%=      5-min Rain = 0
KCR2 251842Z 15006G11KT 35/16 A2996 RMK A01 T03490156  RH  032%=      5-min Rain = 0
KCR2 251843Z 18005KT 35/16 A2996 RMK A01 T03460155  RH  032%=      5-min Rain = 0
KCR2 251844Z 16004KT 35/16 A2996 RMK A01 T03460155  RH  032%=      5-min Rain = 0
KCR2 251845Z 15005G11KT 35/16 A2996 RMK A01 T03460155  RH  032%=      5-min Rain = 0
KCR2 251846Z 16012KT 35/15 A2996 RMK A01 T03480153  RH  031%=      5-min Rain = 0
KCR2 251847Z 16010KT 35/15 A2996 RMK A01 T03500151  RH  030%=      5-min Rain = 0
KCR2 251848Z 12008G13KT 35/15 A2996 RMK A01 T03530152  RH  030%=      5-min Rain = 0
KCR2 251849Z 11008KT 36/16 A2996 RMK A01 T03550155  RH  030%=      5-min Rain = 0
KCR2 251850Z 11007KT 35/15 A2996 RMK A01 T03520154  RH  031%=      5-min Rain = 0
KCR2 251851Z 12006KT 35/15 A2996 RMK A01 T03480152  RH  031%=      5-min Rain = 0
KCR2 251852Z 14007KT 35/15 A2996 RMK A01 T03460148  RH  031%=      5-min Rain = 0
KCR2 251853Z 17007KT 35/15 A2996 RMK A01 T03470146  RH  030%=      5-min Rain = 0
KCR2 251854Z 18009KT 35/15 A2996 RMK A01 T03480145  RH  030%=      5-min Rain = 0
KCR2 251855Z 18008KT 35/14 A2996 RMK A01 T03480141  RH  029%=      5-min Rain = 0
KCR2 251856Z 19006KT 35/14 A2996 RMK A01 T03460136  RH  028%=      5-min Rain = 0
KCR2 251857Z 18006KT 35/14 A2996 RMK A01 T03450137  RH  029%=      5-min Rain = 0
KCR2 251858Z 18008KT 34/15 A2996 RMK A01 T03440147  RH  031%=      5-min Rain = 0
KCR2 251859Z 19009KT 35/15 A2996 RMK A01 T03460149  RH  031%=      5-min Rain = 0
KCR2 251900Z 18007KT 35/15 A2996 RMK A01 T03510149  RH  030%=      5-min Rain = 0
KCR2 251901Z 16003KT 35/15 A2996 RMK A01 T03500148  RH  030%=      5-min Rain = 0
KCR2 251902Z 15005KT 35/15 A2995 RMK A01 T03490148  RH  030%=      5-min Rain = 0
KCR2 251903Z 19007KT 35/15 A2995 RMK A01 T03520151  RH  030%=      5-min Rain = 0
KCR2 251904Z 19008KT 36/15 A2995 RMK A01 T03560149  RH  029%=      5-min Rain = 0
KCR2 251905Z 17009KT 36/14 A2995 RMK A01 T03570143  RH  028%=      5-min Rain = 0
KCR2 251906Z 19009KT 35/14 A2995 RMK A01 T03540139  RH  028%=      5-min Rain = 0
KCR2 251907Z 19008KT 35/14 A2995 RMK A01 T03530138  RH  028%=      5-min Rain = 0
KCR2 251908Z 19008KT 35/14 A2995 RMK A01 T03530138  RH  028%=      5-min Rain = 0
KCR2 251909Z 18008KT 35/14 A2995 RMK A01 T03540138  RH  027%=      5-min Rain = 0
KCR2 251910Z 18007KT 35/14 A2995 RMK A01 T03510136  RH  028%=      5-min Rain = 0
KCR2 251911Z 19007KT 35/14 A2995 RMK A01 T03510137  RH  028%=      5-min Rain = 0
KCR2 251912Z 19007KT 35/14 A2995 RMK A01 T03530137  RH  027%=      5-min Rain = 0
KCR2 251913Z 18010KT 35/14 A2995 RMK A01 T03530140  RH  028%=      5-min Rain = 0
KCR2 251914Z 16010KT 35/14 A2995 RMK A01 T03540141  RH  028%=      5-min Rain = 0
KCR2 251915Z 16009KT 35/14 A2995 RMK A01 T03540139  RH  028%=      5-min Rain = 0
KCR2 251916Z 16007KT 35/14 A2995 RMK A01 T03520138  RH  028%=      5-min Rain = 0
KCR2 251917Z 15006KT 35/14 A2995 RMK A01 T03510138  RH  028%=      5-min Rain = 0
KCR2 251918Z 15004KT 35/14 A2995 RMK A01 T03510137  RH  028%=      5-min Rain = 0
KCR2 251919Z 16002KT 35/14 A2995 RMK A01 T03500137  RH  028%=      5-min Rain = 0
KCR2 251920Z 11004KT 35/14 A2995 RMK A01 T03500137  RH  028%=      5-min Rain = 0
KCR2 251921Z 09003KT 35/14 A2995 RMK A01 T03500135  RH  027%=      5-min Rain = 0
KCR2 251922Z 13006KT 35/14 A2995 RMK A01 T03510135  RH  027%=      5-min Rain = 0
KCR2 251923Z 14005G10KT 35/13 A2995 RMK A01 T03540131  RH  026%=      5-min Rain = 0
KCR2 251924Z 13008KT 36/13 A2995 RMK A01 T03550131  RH  026%=      5-min Rain = 0
KCR2 251925Z 15008KT 36/13 A2995 RMK A01 T03560131  RH  026%=      5-min Rain = 0
KCR2 251926Z 16004G9KT 36/13 A2995 RMK A01 T03580132  RH  026%=      5-min Rain = 0
KCR2 251927Z 19004KT 36/13 A2995 RMK A01 T03570132  RH  026%=      5-min Rain = 0
KCR2 251928Z 21004KT 35/13 A2995 RMK A01 T03540134  RH  027%=      5-min Rain = 0
KCR2 251929Z 16006KT 35/14 A2995 RMK A01 T03540136  RH  027%=      5-min Rain = 0
KCR2 251930Z 14007KT 36/13 A2995 RMK A01 T03560132  RH  026%=      5-min Rain = 0
KCR2 251931Z 10005KT 36/13 A2995 RMK A01 T03560131  RH  026%=      5-min Rain = 0
KCR2 251932Z 10006KT 35/13 A2995 RMK A01 T03540133  RH  027%=      5-min Rain = 0
KCR2 251933Z 12006KT 36/14 A2994 RMK A01 T03570136  RH  027%=      5-min Rain = 0
KCR2 251934Z 13006KT 36/14 A2994 RMK A01 T03590136  RH  026%=      5-min Rain = 0
KCR2 251935Z 11007KT 36/14 A2994 RMK A01 T03600136  RH  026%=      5-min Rain = 0
KCR2 251936Z 11007KT 36/14 A2994 RMK A01 T03590137  RH  026%=      5-min Rain = 0
KCR2 251937Z 17008KT 36/13 A2994 RMK A01 T03610133  RH  026%=      5-min Rain = 0
KCR2 251938Z 16008KT 36/13 A2994 RMK A01 T03640126  RH  024%=      5-min Rain = 0
KCR2 251939Z 17008KT 36/13 A2994 RMK A01 T03640125  RH  024%=      5-min Rain = 0
KCR2 251940Z 16009KT 36/12 A2994 RMK A01 T03640122  RH  023%=      5-min Rain = 0
KCR2 251941Z 16007KT 37/12 A2994 RMK A01 T03650117  RH  022%=      5-min Rain = 0
KCR2 251942Z 14006KT 37/12 A2994 RMK A01 T03650116  RH  022%=      5-min Rain = 0
KCR2 251943Z 15005KT 36/12 A2994 RMK A01 T03620115  RH  022%=      5-min Rain = 0
KCR2 251944Z 14004KT 36/13 A2994 RMK A01 T03620125  RH  024%=      5-min Rain = 0
KCR2 251945Z 19002KT 36/13 A2994 RMK A01 T03610132  RH  025%=      5-min Rain = 0
KCR2 251946Z 12002KT 36/12 A2994 RMK A01 T03620122  RH  024%=      5-min Rain = 0
KCR2 251947Z 10005KT 36/14 A2994 RMK A01 T03640141  RH  026%=      5-min Rain = 0
KCR2 251948Z 11004KT 36/14 A2994 RMK A01 T03630143  RH  027%=      5-min Rain = 0
KCR2 251949Z 13011KT 36/14 A2994 RMK A01 T03610137  RH  026%=      5-min Rain = 0
KCR2 251950Z 11010KT 36/13 A2994 RMK A01 T03620131  RH  025%=      5-min Rain = 0
KCR2 251951Z 16010KT 37/13 A2994 RMK A01 T03650133  RH  025%=      5-min Rain = 0
KCR2 251952Z 15006KT 37/13 A2994 RMK A01 T03660129  RH  024%=      5-min Rain = 0
KCR2 251953Z 18004KT 36/13 A2994 RMK A01 T03620126  RH  024%=      5-min Rain = 0
KCR2 251954Z 14004KT 36/13 A2994 RMK A01 T03600130  RH  025%=      5-min Rain = 0
KCR2 251955Z 13004KT 36/13 A2994 RMK A01 T03590129  RH  025%=      5-min Rain = 0
KCR2 251956Z 13010KT 36/13 A2994 RMK A01 T03590134  RH  026%=      5-min Rain = 0
KCR2 251957Z 14010KT 36/14 A2994 RMK A01 T03610138  RH  026%=      5-min Rain = 0
KCR2 251958Z 13009KT 36/14 A2994 RMK A01 T03620137  RH  026%=      5-min Rain = 0
KCR2 251959Z 10008KT 36/14 A2994 RMK A01 T03620137  RH  026%=      5-min Rain = 0
KCR2 252000Z 10005KT 36/14 A2994 RMK A01 T03600136  RH  026%=      5-min Rain = 0
KCR2 252001Z 12006KT 36/14 A2993 RMK A01 T03570136  RH  027%=      5-min Rain = 0
KCR2 252002Z 11010KT 36/14 A2993 RMK A01 T03590144  RH  028%=      5-min Rain = 0
KCR2 252003Z 14011KT 36/15 A2993 RMK A01 T03640146  RH  027%=      5-min Rain = 0
KCR2 252004Z 13009KT 36/15 A2993 RMK A01 T03620145  RH  027%=      5-min Rain = 0
KCR2 252005Z 12008G14KT 36/15 A2993 RMK A01 T03610145  RH  028%=      5-min Rain = 0
KCR2 252006Z 13014G19KT 36/14 A2993 RMK A01 T03610143  RH  027%=      5-min Rain = 0
KCR2 252007Z 12012KT 37/15 A2993 RMK A01 T03670146  RH  027%=      5-min Rain = 0
KCR2 252008Z 12013KT 37/15 A2993 RMK A01 T03650145  RH  027%=      5-min Rain = 0
KCR2 252009Z 13016KT 36/15 A2993 RMK A01 T03630146  RH  027%=      5-min Rain = 0
KCR2 252010Z 13014KT 36/15 A2993 RMK A01 T03630146  RH  027%=      5-min Rain = 0
KCR2 252011Z 12011KT 36/15 A2993 RMK A01 T03610145  RH  028%=      5-min Rain = 0
KCR2 252012Z 15014G20KT 36/15 A2993 RMK A01 T03620146  RH  028%=      5-min Rain = 0
KCR2 252013Z 16012KT 37/15 A2993 RMK A01 T03670146  RH  027%=      5-min Rain = 0
KCR2 252014Z 17010KT 37/14 A2993 RMK A01 T03670143  RH  026%=      5-min Rain = 0
KCR2 252015Z 16007KT 36/14 A2993 RMK A01 T03640143  RH  027%=      5-min Rain = 0
KCR2 252016Z 15012KT 37/14 A2993 RMK A01 T03670143  RH  026%=      5-min Rain = 0
KCR2 252017Z 14013KT 37/14 A2993 RMK A01 T03700141  RH  026%=      5-min Rain = 0
KCR2 252018Z 14009KT 37/14 A2993 RMK A01 T03660139  RH  026%=      5-min Rain = 0
KCR2 252019Z 15007KT 36/14 A2993 RMK A01 T03630141  RH  027%=      5-min Rain = 0
KCR2 252020Z 13014KT 37/14 A2993 RMK A01 T03670143  RH  026%=      5-min Rain = 0
KCR2 252021Z 13010KT 37/14 A2993 RMK A01 T03660142  RH  026%=      5-min Rain = 0
KCR2 252022Z 15008KT 37/14 A2993 RMK A01 T03650144  RH  027%=      5-min Rain = 0
KCR2 252023Z 16012KT 37/14 A2993 RMK A01 T03660144  RH  027%=      5-min Rain = 0
KCR2 252024Z 17012KT 37/14 A2993 RMK A01 T03680142  RH  026%=      5-min Rain = 0
KCR2 252025Z 15011KT 37/14 A2993 RMK A01 T03680142  RH  026%=      5-min Rain = 0
KCR2 252026Z 13011G18KT 37/15 A2993 RMK A01 T03710145  RH  026%=      5-min Rain = 0
KCR2 252027Z 14015KT 37/14 A2993 RMK A01 T03730144  RH  026%=      5-min Rain = 0
KCR2 252028Z 13014KT 37/14 A2993 RMK A01 T03710141  RH  026%=      5-min Rain = 0
KCR2 252029Z 14014KT 37/14 A2993 RMK A01 T03680141  RH  026%=      5-min Rain = 0
KCR2 252030Z 15013KT 37/14 A2993 RMK A01 T03680137  RH  025%=      5-min Rain = 0
KCR2 252031Z 15010KT 37/14 A2993 RMK A01 T03670138  RH  026%=      5-min Rain = 0
KCR2 252032Z 15014KT 37/14 A2993 RMK A01 T03660140  RH  026%=      5-min Rain = 0
KCR2 252033Z 13011G18KT 37/15 A2993 RMK A01 T03660146  RH  027%=      5-min Rain = 0
KCR2 252034Z 14011KT 37/15 A2993 RMK A01 T03670147  RH  027%=      5-min Rain = 0
KCR2 252035Z 13011KT 37/15 A2993 RMK A01 T03660147  RH  027%=      5-min Rain = 0
KCR2 252036Z 15012G17KT 37/14 A2993 RMK A01 T03660142  RH  026%=      5-min Rain = 0
KCR2 252037Z 17010KT 36/14 A2993 RMK A01 T03640140  RH  026%=      5-min Rain = 0
KCR2 252038Z 17010KT 36/14 A2993 RMK A01 T03620141  RH  027%=      5-min Rain = 0
KCR2 252039Z 15014KT 37/14 A2993 RMK A01 T03680144  RH  026%=      5-min Rain = 0
KCR2 252040Z 15012KT 37/14 A2993 RMK A01 T03680141  RH  026%=      5-min Rain = 0
KCR2 252041Z 15011KT 36/14 A2993 RMK A01 T03640139  RH  026%=      5-min Rain = 0
KCR2 252042Z 15015KT 36/14 A2993 RMK A01 T03620139  RH  026%=      5-min Rain = 0
KCR2 252043Z 15013KT 36/14 A2993 RMK A01 T03620139  RH  027%=      5-min Rain = 0
KCR2 252044Z 15010KT 36/14 A2993 RMK A01 T03630139  RH  026%=      5-min Rain = 0
KCR2 252045Z 14007KT 36/14 A2993 RMK A01 T03590140  RH  027%=      5-min Rain = 0
KCR2 252046Z 15010KT 36/14 A2993 RMK A01 T03580141  RH  027%=      5-min Rain = 0
KCR2 252047Z 15011KT 36/14 A2993 RMK A01 T03590143  RH  027%=      5-min Rain = 0
KCR2 252048Z 15013G18KT 36/14 A2993 RMK A01 T03630143  RH  027%=      5-min Rain = 0
KCR2 252049Z 14014KT 36/14 A2993 RMK A01 T03640143  RH  027%=      5-min Rain = 0
KCR2 252050Z 15014KT 36/14 A2993 RMK A01 T03610143  RH  027%=      5-min Rain = 0
KCR2 252051Z 15012KT 36/14 A2992 RMK A01 T03600142  RH  027%=      5-min Rain = 0
KCR2 252052Z 14014KT 36/14 A2992 RMK A01 T03620144  RH  027%=      5-min Rain = 0
KCR2 252053Z 14014KT 37/14 A2992 RMK A01 T03660142  RH  026%=      5-min Rain = 0
KCR2 252054Z 16013KT 37/14 A2992 RMK A01 T03660139  RH  026%=      5-min Rain = 0
KCR2 252055Z 16014KT 37/14 A2992 RMK A01 T03650137  RH  026%=      5-min Rain = 0
KCR2 252056Z 17012KT 36/14 A2992 RMK A01 T03640135  RH  025%=      5-min Rain = 0
KCR2 252057Z 16012KT 36/14 A2992 RMK A01 T03620137  RH  026%=      5-min Rain = 0
KCR2 252058Z 17011KT 36/14 A2992 RMK A01 T03610138  RH  026%=      5-min Rain = 0
KCR2 252059Z 14012G17KT 36/14 A2992 RMK A01 T03600138  RH  026%=      5-min Rain = 0
KCR2 252100Z 13011KT 36/14 A2992 RMK A01 T03580139  RH  027%=      5-min Rain = 0
KCR2 252101Z 13012KT 36/14 A2992 RMK A01 T03590140  RH  027%=      5-min Rain = 0
KCR2 252102Z 13012KT 36/14 A2992 RMK A01 T03620138  RH  026%=      5-min Rain = 0
KCR2 252103Z 14009KT 36/14 A2992 RMK A01 T03620136  RH  026%=      5-min Rain = 0
KCR2 252104Z 14008KT 36/14 A2992 RMK A01 T03610135  RH  026%=      5-min Rain = 0
KCR2 252105Z 15011KT 36/13 A2992 RMK A01 T03610133  RH  026%=      5-min Rain = 0
KCR2 252106Z 16010G15KT 36/13 A2992 RMK A01 T03640134  RH  025%=      5-min Rain = 0
KCR2 252107Z 14014KT 37/14 A2992 RMK A01 T03650138  RH  026%=      5-min Rain = 0
KCR2 252108Z 14011KT 37/14 A2992 RMK A01 T03660139  RH  026%=      5-min Rain = 0
KCR2 252109Z 15009G14KT 36/14 A2992 RMK A01 T03640139  RH  026%=      5-min Rain = 0
KCR2 252110Z 16012KT 37/14 A2992 RMK A01 T03660142  RH  026%=      5-min Rain = 0
KCR2 252111Z 15012KT 37/14 A2992 RMK A01 T03700141  RH  026%=      5-min Rain = 0
KCR2 252112Z 13015KT 37/14 A2992 RMK A01 T03690139  RH  025%=      5-min Rain = 0
KCR2 252113Z 13014KT 37/14 A2992 RMK A01 T03650138  RH  026%=      5-min Rain = 0
KCR2 252114Z 14013KT 36/13 A2992 RMK A01 T03640134  RH  025%=      5-min Rain = 0
KCR2 252115Z 13011KT 36/13 A2992 RMK A01 T03640131  RH  025%=      5-min Rain = 0
KCR2 252116Z 13008KT 36/13 A2992 RMK A01 T03600133  RH  026%=      5-min Rain = 0
KCR2 252117Z 10009KT 36/13 A2992 RMK A01 T03580131  RH  026%=      5-min Rain = 0
KCR2 252118Z 12008KT 36/13 A2992 RMK A01 T03570132  RH  026%=      5-min Rain = 0
KCR2 252119Z 15007KT 36/14 A2992 RMK A01 T03630139  RH  026%=      5-min Rain = 0
KCR2 252120Z 17011KT 37/14 A2992 RMK A01 T03680141  RH  026%=      5-min Rain = 0
KCR2 252121Z 16011KT 37/14 A2992 RMK A01 T03680140  RH  026%=      5-min Rain = 0
KCR2 252122Z 13013KT 37/14 A2992 RMK A01 T03680141  RH  026%=      5-min Rain = 0
KCR2 252123Z 12009KT 37/14 A2992 RMK A01 T03650139  RH  026%=      5-min Rain = 0
KCR2 252124Z 12008KT 36/14 A2992 RMK A01 T03600138  RH  027%=      5-min Rain = 0
KCR2 252125Z 11011KT 36/14 A2992 RMK A01 T03610137  RH  026%=      5-min Rain = 0
KCR2 252126Z 12012KT 37/14 A2991 RMK A01 T03650143  RH  027%=      5-min Rain = 0
KCR2 252127Z 11012KT 37/15 A2991 RMK A01 T03660145  RH  027%=      5-min Rain = 0
KCR2 252128Z 14014G20KT 37/14 A2991 RMK A01 T03710141  RH  026%=      5-min Rain = 0
KCR2 252129Z 16013KT 37/14 A2992 RMK A01 T03700135  RH  025%=      5-min Rain = 0
KCR2 252130Z 16013KT 37/13 A2992 RMK A01 T03690134  RH  025%=      5-min Rain = 0
KCR2 252131Z 15013KT 37/13 A2992 RMK A01 T03700133  RH  024%=      5-min Rain = 0
KCR2 252132Z 15013KT 37/13 A2992 RMK A01 T03700132  RH  024%=      5-min Rain = 0
KCR2 252133Z 15011KT 37/13 A2992 RMK A01 T03700133  RH  024%=      5-min Rain = 0
KCR2 252134Z 14009KT 37/14 A2992 RMK A01 T03660135  RH  025%=      5-min Rain = 0
KCR2 252135Z 12011KT 36/14 A2992 RMK A01 T03640138  RH  026%=      5-min Rain = 0
KCR2 252136Z 12011KT 37/14 A2991 RMK A01 T03650139  RH  026%=      5-min Rain = 0
KCR2 252137Z 13012KT 37/14 A2992 RMK A01 T03650140  RH  026%=      5-min Rain = 0
KCR2 252138Z 17012KT 37/14 A2991 RMK A01 T03660139  RH  026%=      5-min Rain = 0
KCR2 252139Z 18012KT 36/14 A2991 RMK A01 T03640144  RH  027%=      5-min Rain = 0
KCR2 252140Z 11014KT 37/15 A2991 RMK A01 T03680150  RH  027%=      5-min Rain = 0
KCR2 252141Z 11014KT 37/16 A2991 RMK A01 T03690155  RH  028%=      5-min Rain = 0
KCR2 252142Z 12013KT 36/16 A2991 RMK A01 T03640155  RH  029%=      5-min Rain = 0
KCR2 252143Z 12014KT 37/16 A2991 RMK A01 T03650157  RH  029%=      5-min Rain = 0
KCR2 252144Z 15014KT 37/15 A2991 RMK A01 T03690153  RH  028%=      5-min Rain = 0
KCR2 252145Z 14016KT 37/15 A2991 RMK A01 T03680147  RH  027%=      5-min Rain = 0
KCR2 252146Z 13017KT 37/15 A2991 RMK A01 T03650146  RH  027%=      5-min Rain = 0
KCR2 252147Z 13018KT 36/14 A2991 RMK A01 T03620143  RH  027%=      5-min Rain = 0
KCR2 252148Z 13016KT 36/14 A2991 RMK A01 T03620143  RH  027%=      5-min Rain = 0
KCR2 252149Z 11015KT 36/14 A2991 RMK A01 T03590144  RH  028%=      5-min Rain = 0
KCR2 252150Z 11014KT 36/15 A2991 RMK A01 T03570146  RH  028%=      5-min Rain = 0
KCR2 252151Z 12011G19KT 36/15 A2991 RMK A01 T03550147  RH  029%=      5-min Rain = 0
KCR2 252152Z 13016KT 36/15 A2991 RMK A01 T03560151  RH  030%=      5-min Rain = 0
KCR2 252153Z 12017KT 36/15 A2991 RMK A01 T03580154  RH  030%=      5-min Rain = 0
KCR2 252154Z 12015KT 36/16 A2991 RMK A01 T03560157  RH  031%=      5-min Rain = 0
KCR2 252155Z 11015KT 36/16 A2991 RMK A01 T03560157  RH  031%=      5-min Rain = 0
KCR2 252156Z 12017KT 36/15 A2991 RMK A01 T03550154  RH  030%=      5-min Rain = 0
KCR2 252157Z 14016KT 35/15 A2991 RMK A01 T03540150  RH  030%=      5-min Rain = 0
KCR2 252158Z 14016KT 35/15 A2991 RMK A01 T03530149  RH  030%=      5-min Rain = 0
KCR2 252159Z 15016KT 35/15 A2991 RMK A01 T03540150  RH  030%=      5-min Rain = 0
KCR2 252200Z 13016KT 35/15 A2991 RMK A01 T03540154  RH  031%=      5-min Rain = 0
KCR2 252201Z 11015KT 35/16 A2991 RMK A01 T03540156  RH  031%=      5-min Rain = 0
KCR2 252202Z 12017KT 35/16 A2991 RMK A01 T03540158  RH  031%=      5-min Rain = 0
KCR2 252203Z 13011KT 35/16 A2991 RMK A01 T03540159  RH  031%=      5-min Rain = 0
KCR2 252204Z 15013KT 36/16 A2991 RMK A01 T03590158  RH  030%=      5-min Rain = 0
KCR2 252205Z 14014KT 36/16 A2991 RMK A01 T03610159  RH  030%=      5-min Rain = 0
KCR2 252206Z 14017KT 36/16 A2991 RMK A01 T03600159  RH  030%=      5-min Rain = 0
KCR2 252207Z 15016KT 36/16 A2991 RMK A01 T03580158  RH  031%=      5-min Rain = 0
KCR2 252208Z 15015KT 36/16 A2991 RMK A01 T03580155  RH  030%=      5-min Rain = 0
KCR2 252209Z 13014KT 36/16 A2992 RMK A01 T03610158  RH  030%=      5-min Rain = 0
KCR2 252210Z 13016KT 36/16 A2992 RMK A01 T03590156  RH  030%=      5-min Rain = 0
KCR2 252211Z 12015KT 35/16 A2992 RMK A01 T03540155  RH  031%=      5-min Rain = 0
KCR2 252212Z 12016KT 35/16 A2992 RMK A01 T03510155  RH  031%=      5-min Rain = 0
KCR2 252213Z 13016KT 35/15 A2991 RMK A01 T03500153  RH  031%=      5-min Rain = 0
KCR2 252214Z 13017KT 35/15 A2991 RMK A01 T03510151  RH  030%=      5-min Rain = 0
KCR2 252215Z 14016KT 35/16 A2992 RMK A01 T03510155  RH  031%=      5-min Rain = 0
KCR2 252216Z 14019KT 35/16 A2992 RMK A01 T03510157  RH  032%=      5-min Rain = 0
KCR2 252217Z 15016KT 35/16 A2992 RMK A01 T03490156  RH  032%=      5-min Rain = 0
KCR2 252218Z 16014KT 35/16 A2992 RMK A01 T03490156  RH  032%=      5-min Rain = 0
KCR2 252219Z 14013KT 35/16 A2992 RMK A01 T03490156  RH  032%=      5-min Rain = 0
KCR2 252220Z 13015KT 35/16 A2992 RMK A01 T03490159  RH  032%=      5-min Rain = 0
KCR2 252221Z 13016KT 35/16 A2992 RMK A01 T03510160  RH  032%=      5-min Rain = 0
KCR2 252222Z 14017KT 35/16 A2992 RMK A01 T03490159  RH  032%=      5-min Rain = 0
KCR2 252223Z 15018KT 35/16 A2992 RMK A01 T03480159  RH  033%=      5-min Rain = 0
KCR2 252224Z 14018KT 35/16 A2991 RMK A01 T03480158  RH  032%=      5-min Rain = 0
KCR2 252225Z 12016KT 35/16 A2991 RMK A01 T03480156  RH  032%=      5-min Rain = 0
KCR2 252226Z 12018KT 35/16 A2992 RMK A01 T03480156  RH  032%=      5-min Rain = 0
KCR2 252227Z 14014G19KT 35/16 A2992 RMK A01 T03490155  RH  032%=      5-min Rain = 0
KCR2 252228Z 14014KT 35/16 A2992 RMK A01 T03510156  RH  031%=      5-min Rain = 0
KCR2 252229Z 14016KT 35/16 A2992 RMK A01 T03520156  RH  031%=      5-min Rain = 0
KCR2 252230Z 14018KT 35/16 A2992 RMK A01 T03500155  RH  031%=      5-min Rain = 0
KCR2 252231Z 15015KT 35/15 A2992 RMK A01 T03480153  RH  031%=      5-min Rain = 0
KCR2 252232Z 14014KT 35/15 A2992 RMK A01 T03460153  RH  032%=      5-min Rain = 0
KCR2 252233Z 14013KT 35/15 A2992 RMK A01 T03460153  RH  032%=      5-min Rain = 0
KCR2 252234Z 13012KT 35/15 A2992 RMK A01 T03460154  RH  032%=      5-min Rain = 0
KCR2 252235Z 14014KT 35/15 A2992 RMK A01 T03490154  RH  031%=      5-min Rain = 0
KCR2 252236Z 16015KT 35/15 A2992 RMK A01 T03500152  RH  031%=      5-min Rain = 0
KCR2 252237Z 15012KT 35/15 A2992 RMK A01 T03520152  RH  030%=      5-min Rain = 0
KCR2 252238Z 15016KT 35/15 A2992 RMK A01 T03520151  RH  030%=      5-min Rain = 0
KCR2 252239Z 16017KT 35/15 A2992 RMK A01 T03500150  RH  030%=      5-min Rain = 0
KCR2 252240Z 15016KT 35/15 A2992 RMK A01 T03490150  RH  030%=      5-min Rain = 0
KCR2 252241Z 15017KT 35/15 A2992 RMK A01 T03470150  RH  031%=      5-min Rain = 0
KCR2 252242Z 15017KT 35/15 A2992 RMK A01 T03470150  RH  031%=      5-min Rain = 0
KCR2 252243Z 15014KT 35/15 A2992 RMK A01 T03450149  RH  031%=      5-min Rain = 0
KCR2 252244Z 15014KT 35/15 A2992 RMK A01 T03450151  RH  031%=      5-min Rain = 0
KCR2 252245Z 14014KT 35/15 A2992 RMK A01 T03460152  RH  031%=      5-min Rain = 0
KCR2 252246Z 15013KT 35/15 A2992 RMK A01 T03470153  RH  031%=      5-min Rain = 0
KCR2 252247Z 15013KT 35/15 A2992 RMK A01 T03470150  RH  031%=      5-min Rain = 0
KCR2 252248Z 14012KT 35/15 A2992 RMK A01 T03480150  RH  031%=      5-min Rain = 0
KCR2 252249Z 16014G19KT 35/15 A2992 RMK A01 T03490151  RH  031%=      5-min Rain = 0
KCR2 252250Z 16015KT 35/15 A2992 RMK A01 T03480151  RH  031%=      5-min Rain = 0
KCR2 252251Z 15018KT 35/15 A2992 RMK A01 T03460150  RH  031%=      5-min Rain = 0
KCR2 252252Z 15017KT 35/15 A2992 RMK A01 T03450149  RH  031%=      5-min Rain = 0
KCR2 252253Z 14013G18KT 34/15 A2992 RMK A01 T03430150  RH  031%=      5-min Rain = 0
KCR2 252254Z 14015KT 35/15 A2992 RMK A01 T03450150  RH  031%=      5-min Rain = 0
KCR2 252255Z 14015KT 35/15 A2992 RMK A01 T03460148  RH  030%=      5-min Rain = 0
KCR2 252256Z 14014KT 35/15 A2992 RMK A01 T03470148  RH  030%=      5-min Rain = 0
KCR2 252257Z 15014KT 35/15 A2992 RMK A01 T03470145  RH  030%=      5-min Rain = 0
KCR2 252258Z 14012KT 35/15 A2991 RMK A01 T03460147  RH  030%=      5-min Rain = 0
KCR2 252259Z 14014KT 35/15 A2991 RMK A01 T03450149  RH  031%=      5-min Rain = 0
KCR2 252300Z 15015KT 35/15 A2991 RMK A01 T03470149  RH  031%=      5-min Rain = 0
KCR2 252301Z 14015KT 35/15 A2991 RMK A01 T03490151  RH  031%=      5-min Rain = 0
KCR2 252302Z 15016KT 35/15 A2991 RMK A01 T03490149  RH  030%=      5-min Rain = 0
KCR2 252303Z 14015KT 35/15 A2991 RMK A01 T03480150  RH  031%=      5-min Rain = 0
KCR2 252304Z 14018KT 35/15 A2991 RMK A01 T03490150  RH  031%=      5-min Rain = 0
KCR2 252305Z 15017KT 35/15 A2991 RMK A01 T03480150  RH  031%=      5-min Rain = 0
KCR2 252306Z 15014KT 35/15 A2991 RMK A01 T03470149  RH  031%=      5-min Rain = 0
KCR2 252307Z 14015G22KT 35/15 A2991 RMK A01 T03460150  RH  031%=      5-min Rain = 0
KCR2 252308Z 14021KT 35/15 A2991 RMK A01 T03470150  RH  031%=      5-min Rain = 0
KCR2 252309Z 14019KT 35/15 A2991 RMK A01 T03470149  RH  031%=      5-min Rain = 0
KCR2 252310Z 13017KT 35/15 A2991 RMK A01 T03450148  RH  031%=      5-min Rain = 0
KCR2 252311Z 13015KT 35/15 A299 RMK A01 T03450149  RH  031%=      5-min Rain = 0
KCR2 252312Z 13017KT 34/15 A299 RMK A01 T03440149  RH  031%=      5-min Rain = 0
KCR2 252313Z 13015KT 34/15 A299 RMK A01 T03440147  RH  031%=      5-min Rain = 0
KCR2 252314Z 15016KT 35/15 A299 RMK A01 T03460146  RH  030%=      5-min Rain = 0
KCR2 252315Z 15015KT 35/15 A299 RMK A01 T03490145  RH  030%=      5-min Rain = 0
KCR2 252316Z 15018KT 35/15 A299 RMK A01 T03490145  RH  030%=      5-min Rain = 0
KCR2 252317Z 14016KT 35/15 A299 RMK A01 T03470146  RH  030%=      5-min Rain = 0
KCR2 252318Z 15017KT 35/15 A299 RMK A01 T03450148  RH  031%=      5-min Rain = 0
KCR2 252319Z 15018KT 35/15 A2991 RMK A01 T03460150  RH  031%=      5-min Rain = 0
KCR2 252320Z 15015KT 35/15 A2991 RMK A01 T03460151  RH  031%=      5-min Rain = 0
KCR2 252321Z 15016KT 35/15 A2991 RMK A01 T03460152  RH  031%=      5-min Rain = 0
KCR2 252322Z 15013KT 34/15 A2991 RMK A01 T03440151  RH  032%=      5-min Rain = 0
KCR2 252323Z 14017KT 34/15 A2991 RMK A01 T03440153  RH  032%=      5-min Rain = 0
KCR2 252324Z 15016KT 35/15 A2991 RMK A01 T03450152  RH  032%=      5-min Rain = 0
KCR2 252325Z 13016KT 34/15 A2991 RMK A01 T03430153  RH  032%=      5-min Rain = 0
KCR2 252326Z 14016KT 34/15 A2991 RMK A01 T03410153  RH  032%=      5-min Rain = 0
KCR2 252327Z 16015G22KT 34/15 A2991 RMK A01 T03390153  RH  033%=      5-min Rain = 0
KCR2 252328Z 16019KT 34/15 A2991 RMK A01 T03390152  RH  033%=      5-min Rain = 0
KCR2 252329Z 15017KT 34/15 A2991 RMK A01 T03390151  RH  032%=      5-min Rain = 0
KCR2 252330Z 16016KT 34/15 A2991 RMK A01 T03390150  RH  032%=      5-min Rain = 0
KCR2 252331Z 15015KT 34/15 A2991 RMK A01 T03400151  RH  032%=      5-min Rain = 0
KCR2 252332Z 15013KT 34/15 A2991 RMK A01 T03410152  RH  032%=      5-min Rain = 0
KCR2 252333Z 14016KT 34/15 A2991 RMK A01 T03420151  RH  032%=      5-min Rain = 0
KCR2 252334Z 15016KT 34/15 A2991 RMK A01 T03410149  RH  032%=      5-min Rain = 0
KCR2 252335Z 16014KT 34/15 A2991 RMK A01 T03410149  RH  032%=      5-min Rain = 0
KCR2 252336Z 14017KT 34/15 A2991 RMK A01 T03410149  RH  032%=      5-min Rain = 0
KCR2 252337Z 16017KT 34/15 A2991 RMK A01 T03420151  RH  032%=      5-min Rain = 0
KCR2 252338Z 15016G21KT 34/15 A2991 RMK A01 T03420151  RH  032%=      5-min Rain = 0
KCR2 252339Z 15015KT 34/15 A2991 RMK A01 T03440152  RH  032%=      5-min Rain = 0
KCR2 252340Z 16013KT 35/15 A2991 RMK A01 T03460152  RH  031%=      5-min Rain = 0
KCR2 252341Z 15017KT 35/15 A2991 RMK A01 T03470152  RH  031%=      5-min Rain = 0
KCR2 252342Z 15016G21KT 34/15 A2991 RMK A01 T03440152  RH  032%=      5-min Rain = 0
KCR2 252343Z 14017KT 34/15 A2991 RMK A01 T03440153  RH  032%=      5-min Rain = 0
KCR2 252344Z 14016KT 34/15 A2991 RMK A01 T03420153  RH  032%=      5-min Rain = 0
KCR2 252345Z 14018KT 34/15 A2991 RMK A01 T03400150  RH  032%=      5-min Rain = 0
KCR2 252346Z 15018KT 34/15 A2991 RMK A01 T03360150  RH  033%=      5-min Rain = 0
KCR2 252347Z 15017KT 34/15 A2991 RMK A01 T03350151  RH  033%=      5-min Rain = 0
KCR2 252348Z 15016KT 34/15 A2991 RMK A01 T03350151  RH  033%=      5-min Rain = 0
KCR2 252349Z 14017KT 34/15 A2991 RMK A01 T03350152  RH  033%=      5-min Rain = 0
KCR2 252350Z 15016KT 33/15 A2991 RMK A01 T03340153  RH  034%=      5-min Rain = 0
KCR2 252351Z 15017G22KT 33/15 A2991 RMK A01 T03330153  RH  034%=      5-min Rain = 0
KCR2 252352Z 14016G21KT 33/15 A2991 RMK A01 T03330153  RH  034%=      5-min Rain = 0
KCR2 252353Z 15017KT 33/15 A2991 RMK A01 T03310152  RH  034%=      5-min Rain = 0
KCR2 252354Z 14017KT 33/15 A2991 RMK A01 T03310151  RH  034%=      5-min Rain = 0
KCR2 252355Z 15017G23KT 33/15 A2991 RMK A01 T03310151  RH  034%=      5-min Rain = 0
KCR2 252356Z 14016KT 33/15 A2992 RMK A01 T03310150  RH  034%=      5-min Rain = 0
KCR2 252357Z 14015KT 33/15 A2992 RMK A01 T03310150  RH  034%=      5-min Rain = 0
KCR2 252358Z 14018KT 33/15 A2992 RMK A01 T03320151  RH  034%=      5-min Rain = 0
KCR2 252359Z 14016KT 33/15 A2992 RMK A01 T03310151  RH  034%=      5-min Rain = 0
KCR2 260000Z 15017KT 33/15 A2992 RMK A01 T03310150  RH  034%=      5-min Rain = 0
KCR2 260001Z 15019KT 33/15 A2992 RMK A01 T03310151  RH  034%=      5-min Rain = 0
KCR2 260002Z 15017KT 33/15 A2992 RMK A01 T03300150  RH  034%=      5-min Rain = 0
KCR2 260003Z 16014KT 33/15 A2992 RMK A01 T03300150  RH  034%=      5-min Rain = 0
KCR2 260004Z 16015KT 33/15 A2992 RMK A01 T03310151  RH  034%=      5-min Rain = 0
KCR2 260005Z 15017KT 33/15 A2992 RMK A01 T03320150  RH  034%=      5-min Rain = 0
KCR2 260006Z 16014KT 33/15 A2992 RMK A01 T03320150  RH  033%=      5-min Rain = 0
KCR2 260007Z 15017KT 33/15 A2992 RMK A01 T03330150  RH  033%=      5-min Rain = 0
KCR2 260008Z 16018KT 33/15 A2992 RMK A01 T03320151  RH  034%=      5-min Rain = 0
KCR2 260009Z 16018KT 33/15 A2992 RMK A01 T03310151  RH  034%=      5-min Rain = 0
KCR2 260010Z 16019G24KT 33/15 A2992 RMK A01 T03310152  RH  034%=      5-min Rain = 0
KCR2 260011Z 16020G26KT 33/15 A2992 RMK A01 T03310151  RH  034%=      5-min Rain = 0
KCR2 260012Z 15020KT 33/15 A2992 RMK A01 T03290151  RH  034%=      5-min Rain = 0
KCR2 260013Z 15020KT 33/15 A2992 RMK A01 T03280151  RH  034%=      5-min Rain = 0
KCR2 260014Z 15019KT 33/15 A2992 RMK A01 T03280151  RH  034%=      5-min Rain = 0
KCR2 260015Z 15020KT 33/15 A2992 RMK A01 T03280150  RH  034%=      5-min Rain = 0
KCR2 260016Z 15019KT 33/15 A2992 RMK A01 T03280150  RH  034%=      5-min Rain = 0
KCR2 260017Z 15019KT 33/15 A2992 RMK A01 T03270149  RH  034%=      5-min Rain = 0
KCR2 260018Z 16021KT 33/15 A2992 RMK A01 T03270148  RH  034%=      5-min Rain = 0
KCR2 260019Z 16019KT 33/15 A2992 RMK A01 T03260148  RH  034%=      5-min Rain = 0
KCR2 260020Z 16020KT 33/15 A2992 RMK A01 T03260148  RH  034%=      5-min Rain = 0
KCR2 260021Z 16018KT 33/15 A2992 RMK A01 T03250148  RH  034%=      5-min Rain = 0
KCR2 260022Z 16017KT 33/15 A2992 RMK A01 T03250148  RH  034%=      5-min Rain = 0
KCR2 260023Z 16016KT 33/15 A2992 RMK A01 T03250147  RH  034%=      5-min Rain = 0
KCR2 260024Z 16019KT 33/15 A2992 RMK A01 T03250147  RH  034%=      5-min Rain = 0
KCR2 260025Z 15019KT 32/15 A2992 RMK A01 T03240146  RH  034%=      5-min Rain = 0
KCR2 260026Z 16016KT 32/15 A2992 RMK A01 T03240146  RH  034%=      5-min Rain = 0
KCR2 260027Z 16018KT 32/15 A2992 RMK A01 T03240146  RH  034%=      5-min Rain = 0
KCR2 260028Z 16019KT 32/15 A2992 RMK A01 T03240147  RH  034%=      5-min Rain = 0
KCR2 260029Z 16016KT 32/15 A2992 RMK A01 T03230147  RH  035%=      5-min Rain = 0
KCR2 260030Z 16015G23KT 32/15 A2992 RMK A01 T03230147  RH  035%=      5-min Rain = 0
KCR2 260031Z 16018KT 32/15 A2992 RMK A01 T03220147  RH  035%=      5-min Rain = 0
KCR2 260032Z 16018KT 32/15 A2992 RMK A01 T03220147  RH  035%=      5-min Rain = 0
KCR2 260033Z 16018G23KT 32/15 A2992 RMK A01 T03210147  RH  035%=      5-min Rain = 0
KCR2 260034Z 16019KT 32/15 A2992 RMK A01 T03210147  RH  035%=      5-min Rain = 0
KCR2 260035Z 16017KT 32/15 A2992 RMK A01 T03210146  RH  035%=      5-min Rain = 0
KCR2 260036Z 16016G22KT 32/15 A2992 RMK A01 T03200147  RH  035%=      5-min Rain = 0
KCR2 260037Z 16018G23KT 32/15 A2992 RMK A01 T03200147  RH  035%=      5-min Rain = 0
KCR2 260038Z 16021KT 32/15 A2992 RMK A01 T03200147  RH  035%=      5-min Rain = 0
KCR2 260039Z 16016KT 32/15 A2992 RMK A01 T03190146  RH  035%=      5-min Rain = 0
KCR2 260040Z 16018KT 32/15 A2992 RMK A01 T03190146  RH  035%=      5-min Rain = 0
KCR2 260041Z 16018KT 32/15 A2992 RMK A01 T03190146  RH  035%=      5-min Rain = 0
KCR2 260042Z 15017KT 32/15 A2992 RMK A01 T03190146  RH  035%=      5-min Rain = 0
KCR2 260043Z 16020KT 32/15 A2992 RMK A01 T03190146  RH  035%=      5-min Rain = 0
KCR2 260044Z 16018KT 32/15 A2992 RMK A01 T03190146  RH  035%=      5-min Rain = 0
KCR2 260045Z 16015KT 32/15 A2992 RMK A01 T03180145  RH  035%=      5-min Rain = 0
KCR2 260046Z 16014KT 32/15 A2992 RMK A01 T03190145  RH  035%=      5-min Rain = 0
KCR2 260047Z 15016KT 32/15 A2992 RMK A01 T03190145  RH  035%=      5-min Rain = 0
KCR2 260048Z 15015KT 32/14 A2992 RMK A01 T03190144  RH  035%=      5-min Rain = 0
KCR2 260049Z 15014G20KT 32/14 A2992 RMK A01 T03190144  RH  035%=      5-min Rain = 0
KCR2 260050Z 15015KT 32/14 A2992 RMK A01 T03190144  RH  035%=      5-min Rain = 0
KCR2 260051Z 14017KT 32/14 A2992 RMK A01 T03180143  RH  035%=      5-min Rain = 0
KCR2 260052Z 15017KT 32/14 A2992 RMK A01 T03180143  RH  035%=      5-min Rain = 0
KCR2 260053Z 15016KT 32/14 A2992 RMK A01 T03170143  RH  035%=      5-min Rain = 0
KCR2 260054Z 15016KT 32/14 A2992 RMK A01 T03170142  RH  035%=      5-min Rain = 0
KCR2 260055Z 15015KT 32/14 A2992 RMK A01 T03180142  RH  035%=      5-min Rain = 0
KCR2 260056Z 15013KT 32/14 A2992 RMK A01 T03170142  RH  034%=      5-min Rain = 0
KCR2 260057Z 15015KT 32/14 A2992 RMK A01 T03170142  RH  034%=      5-min Rain = 0
KCR2 260058Z 15018KT 32/14 A2992 RMK A01 T03170142  RH  034%=      5-min Rain = 0
KCR2 260059Z 15016KT 32/14 A2992 RMK A01 T03170142  RH  035%=      5-min Rain = 0
KCR2 260100Z 14013KT 32/14 A2992 RMK A01 T03170142  RH  035%=      5-min Rain = 0
KCR2 260101Z 14013KT 32/14 A2992 RMK A01 T03170142  RH  035%=      5-min Rain = 0
KCR2 260102Z 14016KT 32/14 A2992 RMK A01 T03170142  RH  035%=      5-min Rain = 0
KCR2 260103Z 14014KT 32/14 A2992 RMK A01 T03170141  RH  035%=      5-min Rain = 0
KCR2 260104Z 15015KT 32/14 A2992 RMK A01 T03160141  RH  035%=      5-min Rain = 0
KCR2 260105Z 15019KT 32/14 A2992 RMK A01 T03170142  RH  035%=      5-min Rain = 0
KCR2 260106Z 15017KT 32/14 A2992 RMK A01 T03160141  RH  035%=      5-min Rain = 0
KCR2 260107Z 16016G21KT 32/14 A2992 RMK A01 T03160142  RH  035%=      5-min Rain = 0
KCR2 260108Z 15014KT 32/14 A2992 RMK A01 T03160142  RH  035%=      5-min Rain = 0
KCR2 260109Z 15015G20KT 32/14 A2992 RMK A01 T03160143  RH  035%=      5-min Rain = 0
KCR2 260110Z 15018KT 32/14 A2992 RMK A01 T03160143  RH  035%=      5-min Rain = 0
KCR2 260111Z 15017KT 32/14 A2993 RMK A01 T03160143  RH  035%=      5-min Rain = 0
KCR2 260112Z 15017G22KT 32/14 A2993 RMK A01 T03150142  RH  035%=      5-min Rain = 0
KCR2 260113Z 15017KT 32/14 A2993 RMK A01 T03150142  RH  035%=      5-min Rain = 0
KCR2 260114Z 15018KT 32/14 A2993 RMK A01 T03150143  RH  035%=      5-min Rain = 0
KCR2 260115Z 16016KT 32/14 A2993 RMK A01 T03150143  RH  035%=      5-min Rain = 0
KCR2 260116Z 16015KT 32/14 A2993 RMK A01 T03150143  RH  035%=      5-min Rain = 0
KCR2 260117Z 16016G21KT 32/14 A2993 RMK A01 T03150143  RH  035%=      5-min Rain = 0
KCR2 260118Z 16017KT 32/14 A2993 RMK A01 T03150143  RH  035%=      5-min Rain = 0
KCR2 260119Z 17014G19KT 31/14 A2993 RMK A01 T03140143  RH  035%=      5-min Rain = 0
KCR2 260120Z 16018KT 31/14 A2993 RMK A01 T03140143  RH  035%=      5-min Rain = 0
KCR2 260121Z 17018KT 31/14 A2993 RMK A01 T03140143  RH  035%=      5-min Rain = 0
KCR2 260122Z 17017KT 31/14 A2993 RMK A01 T03130143  RH  036%=      5-min Rain = 0
KCR2 260123Z 17017KT 31/14 A2993 RMK A01 T03130143  RH  036%=      5-min Rain = 0
KCR2 260124Z 17015KT 31/14 A2993 RMK A01 T03130143  RH  036%=      5-min Rain = 0
KCR2 260125Z 16012KT 31/14 A2993 RMK A01 T03130143  RH  036%=      5-min Rain = 0
KCR2 260126Z 16011KT 31/14 A2993 RMK A01 T03130143  RH  036%=      5-min Rain = 0
KCR2 260127Z 16011KT 31/14 A2993 RMK A01 T03130144  RH  036%=      5-min Rain = 0
KCR2 260128Z 16016G21KT 31/14 A2993 RMK A01 T03130144  RH  036%=      5-min Rain = 0
KCR2 260129Z 16013KT 31/14 A2993 RMK A01 T03130143  RH  036%=      5-min Rain = 0
KCR2 260130Z 16014G19KT 31/14 A2993 RMK A01 T03130144  RH  036%=      5-min Rain = 0
KCR2 260131Z 16016KT 31/14 A2993 RMK A01 T03130143  RH  036%=      5-min Rain = 0
KCR2 260132Z 16015KT 31/14 A2993 RMK A01 T03120143  RH  036%=      5-min Rain = 0
KCR2 260133Z 16015KT 31/14 A2993 RMK A01 T03120143  RH  036%=      5-min Rain = 0
KCR2 260134Z 15016KT 31/14 A2993 RMK A01 T03120143  RH  036%=      5-min Rain = 0
KCR2 260135Z 14016KT 31/14 A2993 RMK A01 T03120143  RH  036%=      5-min Rain = 0
KCR2 260136Z 15013KT 31/14 A2993 RMK A01 T03120143  RH  036%=      5-min Rain = 0
KCR2 260137Z 16014KT 31/14 A2993 RMK A01 T03110143  RH  036%=      5-min Rain = 0
KCR2 260138Z 16013KT 31/14 A2993 RMK A01 T03110143  RH  036%=      5-min Rain = 0
KCR2 260139Z 16015KT 31/14 A2993 RMK A01 T03100143  RH  036%=      5-min Rain = 0
KCR2 260140Z 16013KT 31/14 A2993 RMK A01 T03110143  RH  036%=      5-min Rain = 0
KCR2 260141Z 16013KT 31/14 A2993 RMK A01 T03110143  RH  036%=      5-min Rain = 0
KCR2 260142Z 17013KT 31/14 A2993 RMK A01 T03100143  RH  036%=      5-min Rain = 0
KCR2 260143Z 16013KT 31/14 A2993 RMK A01 T03100143  RH  036%=      5-min Rain = 0
KCR2 260144Z 16013KT 31/14 A2993 RMK A01 T03100143  RH  036%=      5-min Rain = 0
KCR2 260145Z 15011KT 31/14 A2993 RMK A01 T03090143  RH  036%=      5-min Rain = 0
KCR2 260146Z 16010KT 31/14 A2993 RMK A01 T03090143  RH  037%=      5-min Rain = 0
KCR2 260147Z 16010KT 31/14 A2993 RMK A01 T03080143  RH  037%=      5-min Rain = 0
KCR2 260148Z 16013KT 31/14 A2993 RMK A01 T03080144  RH  037%=      5-min Rain = 0
KCR2 260149Z 15013G18KT 31/14 A2993 RMK A01 T03080144  RH  037%=      5-min Rain = 0
KCR2 260150Z 15012G17KT 31/14 A2993 RMK A01 T03080144  RH  037%=      5-min Rain = 0
KCR2 260151Z 15015KT 31/14 A2993 RMK A01 T03070143  RH  037%=      5-min Rain = 0
KCR2 260152Z 15012KT 31/14 A2993 RMK A01 T03070144  RH  037%=      5-min Rain = 0
KCR2 260153Z 15014KT 31/14 A2993 RMK A01 T03060143  RH  037%=      5-min Rain = 0
KCR2 260154Z 15014KT 31/14 A2993 RMK A01 T03060143  RH  037%=      5-min Rain = 0
KCR2 260155Z 15016KT 31/14 A2993 RMK A01 T03060143  RH  037%=      5-min Rain = 0
KCR2 260156Z 15017KT 31/14 A2993 RMK A01 T03060143  RH  037%=      5-min Rain = 0
KCR2 260157Z 15015KT 31/14 A2993 RMK A01 T03060143  RH  037%=      5-min Rain = 0
KCR2 260158Z 15016KT 31/14 A2993 RMK A01 T03050143  RH  037%=      5-min Rain = 0
KCR2 260159Z 15015KT 31/14 A2993 RMK A01 T03050143  RH  037%=      5-min Rain = 0
KCR2 260200Z 15016KT 31/14 A2993 RMK A01 T03050144  RH  038%=      5-min Rain = 0
KCR2 260201Z 15015KT 31/14 A2993 RMK A01 T03050144  RH  038%=      5-min Rain = 0
KCR2 260202Z 15015KT 30/14 A2993 RMK A01 T03040144  RH  038%=      5-min Rain = 0
KCR2 260203Z 16015KT 30/14 A2993 RMK A01 T03040144  RH  038%=      5-min Rain = 0
KCR2 260204Z 15014KT 30/14 A2993 RMK A01 T03040144  RH  038%=      5-min Rain = 0
KCR2 260205Z 15014KT 30/14 A2993 RMK A01 T03030143  RH  038%=      5-min Rain = 0
KCR2 260206Z 15013KT 30/14 A2993 RMK A01 T03030144  RH  038%=      5-min Rain = 0
KCR2 260207Z 15014KT 30/14 A2993 RMK A01 T03020144  RH  038%=      5-min Rain = 0
KCR2 260208Z 15013KT 30/14 A2993 RMK A01 T03020144  RH  038%=      5-min Rain = 0
KCR2 260209Z 16016KT 30/15 A2993 RMK A01 T03020145  RH  038%=      5-min Rain = 0
KCR2 260210Z 16014KT 30/15 A2993 RMK A01 T03010146  RH  039%=      5-min Rain = 0
KCR2 260211Z 16016KT 30/15 A2993 RMK A01 T03020146  RH  039%=      5-min Rain = 0
KCR2 260212Z 16015KT 30/15 A2994 RMK A01 T03010146  RH  039%=      5-min Rain = 0
KCR2 260213Z 16014KT 30/15 A2994 RMK A01 T03010146  RH  039%=      5-min Rain = 0
KCR2 260214Z 16016KT 30/15 A2994 RMK A01 T03010147  RH  039%=      5-min Rain = 0
KCR2 260215Z 16014KT 30/15 A2994 RMK A01 T03010147  RH  039%=      5-min Rain = 0
KCR2 260216Z 16015KT 30/15 A2994 RMK A01 T03010148  RH  039%=      5-min Rain = 0
KCR2 260217Z 16016KT 30/15 A2994 RMK A01 T03010148  RH  040%=      5-min Rain = 0
KCR2 260218Z 16014KT 30/15 A2994 RMK A01 T03000148  RH  040%=      5-min Rain = 0
KCR2 260219Z 17011KT 30/15 A2994 RMK A01 T03000148  RH  040%=      5-min Rain = 0
KCR2 260220Z 17012KT 30/15 A2994 RMK A01 T02990148  RH  040%=      5-min Rain = 0
KCR2 260221Z 16013KT 30/15 A2994 RMK A01 T02990148  RH  040%=      5-min Rain = 0
KCR2 260222Z 16014KT 30/15 A2994 RMK A01 T02990149  RH  040%=      5-min Rain = 0
KCR2 260223Z 17015KT 30/15 A2995 RMK A01 T02990149  RH  040%=      5-min Rain = 0
KCR2 260224Z 16013KT 30/15 A2995 RMK A01 T02980149  RH  040%=      5-min Rain = 0
KCR2 260225Z 16013KT 30/15 A2995 RMK A01 T02980149  RH  040%=      5-min Rain = 0
KCR2 260226Z 16012KT 30/15 A2995 RMK A01 T02980150  RH  040%=      5-min Rain = 0
KCR2 260227Z 16012KT 30/15 A2995 RMK A01 T02980150  RH  041%=      5-min Rain = 0
KCR2 260228Z 16014KT 30/15 A2995 RMK A01 T02980151  RH  041%=      5-min Rain = 0
KCR2 260229Z 16014G20KT 30/15 A2995 RMK A01 T02970151  RH  041%=      5-min Rain = 0
KCR2 260230Z 17015G20KT 30/15 A2995 RMK A01 T02970152  RH  041%=      5-min Rain = 0
KCR2 260231Z 16015KT 30/15 A2995 RMK A01 T02970153  RH  042%=      5-min Rain = 0
KCR2 260232Z 16014KT 30/15 A2996 RMK A01 T02960154  RH  042%=      5-min Rain = 0
KCR2 260233Z 16012KT 30/15 A2996 RMK A01 T02960154  RH  042%=      5-min Rain = 0
KCR2 260234Z 16013G19KT 30/15 A2996 RMK A01 T02960154  RH  042%=      5-min Rain = 0
KCR2 260235Z 15016KT 30/16 A2996 RMK A01 T02960155  RH  042%=      5-min Rain = 0
KCR2 260236Z 16014KT 30/16 A2996 RMK A01 T02950155  RH  043%=      5-min Rain = 0
KCR2 260237Z 16012KT 30/16 A2996 RMK A01 T02950155  RH  043%=      5-min Rain = 0
KCR2 260238Z 16012KT 30/16 A2996 RMK A01 T02950156  RH  043%=      5-min Rain = 0
KCR2 260239Z 16013KT 29/16 A2996 RMK A01 T02940155  RH  043%=      5-min Rain = 0
KCR2 260240Z 16013KT 29/16 A2996 RMK A01 T02940156  RH  043%=      5-min Rain = 0
KCR2 260241Z 16012KT 29/16 A2996 RMK A01 T02940156  RH  043%=      5-min Rain = 0
KCR2 260242Z 16016KT 29/16 A2996 RMK A01 T02930156  RH  043%=      5-min Rain = 0
KCR2 260243Z 16014KT 29/16 A2996 RMK A01 T02930157  RH  044%=      5-min Rain = 0
KCR2 260244Z 16014KT 29/16 A2996 RMK A01 T02930157  RH  044%=      5-min Rain = 0
KCR2 260245Z 16012KT 29/16 A2996 RMK A01 T02930156  RH  044%=      5-min Rain = 0
KCR2 260246Z 16014KT 29/16 A2996 RMK A01 T02920156  RH  044%=      5-min Rain = 0
KCR2 260247Z 15014KT 29/16 A2996 RMK A01 T02920157  RH  044%=      5-min Rain = 0
KCR2 260248Z 16014KT 29/16 A2996 RMK A01 T02920157  RH  044%=      5-min Rain = 0
KCR2 260249Z 16014KT 29/16 A2997 RMK A01 T02920158  RH  044%=      5-min Rain = 0
KCR2 260250Z 16014KT 29/16 A2997 RMK A01 T02910158  RH  044%=      5-min Rain = 0
KCR2 260251Z 17015KT 29/16 A2997 RMK A01 T02910158  RH  045%=      5-min Rain = 0
KCR2 260252Z 16012KT 29/16 A2997 RMK A01 T02910158  RH  045%=      5-min Rain = 0
KCR2 260253Z 16012KT 29/16 A2997 RMK A01 T02900158  RH  045%=      5-min Rain = 0
KCR2 260254Z 16013KT 29/16 A2997 RMK A01 T02900159  RH  045%=      5-min Rain = 0
KCR2 260255Z 16016KT 29/16 A2997 RMK A01 T02900159  RH  045%=      5-min Rain = 0
KCR2 260256Z 16012G17KT 29/16 A2997 RMK A01 T02890160  RH  045%=      5-min Rain = 0
KCR2 260257Z 16012KT 29/16 A2997 RMK A01 T02890160  RH  045%=      5-min Rain = 0
KCR2 260258Z 17014KT 29/16 A2997 RMK A01 T02890160  RH  046%=      5-min Rain = 0
KCR2 260259Z 16014KT 29/16 A2997 RMK A01 T02890160  RH  046%=      5-min Rain = 0
KCR2 260300Z 15013KT 29/16 A2997 RMK A01 T02880161  RH  046%=      5-min Rain = 0
KCR2 260301Z 15012KT 29/16 A2997 RMK A01 T02880161  RH  046%=      5-min Rain = 0
KCR2 260302Z 16013KT 29/16 A2998 RMK A01 T02880161  RH  046%=      5-min Rain = 0
KCR2 260303Z 16009KT 29/16 A2998 RMK A01 T02870161  RH  046%=      5-min Rain = 0
KCR2 260304Z 15009KT 29/16 A2998 RMK A01 T02870161  RH  046%=      5-min Rain = 0
KCR2 260305Z 15012KT 29/16 A2998 RMK A01 T02860162  RH  047%=      5-min Rain = 0
KCR2 260306Z 15014KT 29/16 A2998 RMK A01 T02860162  RH  047%=      5-min Rain = 0
KCR2 260307Z 16012KT 29/16 A2998 RMK A01 T02860163  RH  047%=      5-min Rain = 0
KCR2 260308Z 15015KT 29/16 A2998 RMK A01 T02860163  RH  047%=      5-min Rain = 0
KCR2 260309Z 16013KT 29/16 A2998 RMK A01 T02860163  RH  047%=      5-min Rain = 0
KCR2 260310Z 16011KT 29/16 A2999 RMK A01 T02860163  RH  047%=      5-min Rain = 0
KCR2 260311Z 16012KT 29/16 A2999 RMK A01 T02860164  RH  048%=      5-min Rain = 0
KCR2 260312Z 16014KT 29/16 A2999 RMK A01 T02860164  RH  048%=      5-min Rain = 0
KCR2 260313Z 16015KT 29/16 A2999 RMK A01 T02850164  RH  048%=      5-min Rain = 0
KCR2 260314Z 15013KT 29/17 A2999 RMK A01 T02850165  RH  048%=      5-min Rain = 0
KCR2 260315Z 16013KT 29/17 A30 RMK A01 T02850165  RH  048%=      5-min Rain = 0
KCR2 260316Z 16013G18KT 29/17 A30 RMK A01 T02850165  RH  048%=      5-min Rain = 0
KCR2 260317Z 16014KT 29/17 A30 RMK A01 T02850166  RH  048%=      5-min Rain = 0
KCR2 260318Z 16015KT 28/17 A30 RMK A01 T02840165  RH  048%=      5-min Rain = 0
KCR2 260319Z 16014KT 28/17 A30 RMK A01 T02840165  RH  048%=      5-min Rain = 0
KCR2 260320Z 16015KT 28/17 A30 RMK A01 T02840166  RH  049%=      5-min Rain = 0
KCR2 260321Z 15015KT 28/17 A30 RMK A01 T02840166  RH  049%=      5-min Rain = 0
KCR2 260322Z 16015KT 28/17 A30 RMK A01 T02840165  RH  049%=      5-min Rain = 0
KCR2 260323Z 16014KT 28/17 A30 RMK A01 T02840165  RH  049%=      5-min Rain = 0
KCR2 260324Z 16013KT 28/17 A30 RMK A01 T02830165  RH  049%=      5-min Rain = 0
KCR2 260325Z 16012KT 28/17 A30 RMK A01 T02830165  RH  049%=      5-min Rain = 0
KCR2 260326Z 16013KT 28/17 A3001 RMK A01 T02820165  RH  049%=      5-min Rain = 0
KCR2 260327Z 16014KT 28/17 A3001 RMK A01 T02820165  RH  049%=      5-min Rain = 0
KCR2 260328Z 16016G21KT 28/17 A3001 RMK A01 T02820165  RH  049%=      5-min Rain = 0
KCR2 260329Z 16016KT 28/17 A3001 RMK A01 T02820166  RH  049%=      5-min Rain = 0
KCR2 260330Z 15014KT 28/17 A3001 RMK A01 T02820165  RH  049%=      5-min Rain = 0
KCR2 260331Z 16014KT 28/17 A3001 RMK A01 T02820166  RH  049%=      5-min Rain = 0
KCR2 260332Z 16011KT 28/17 A3001 RMK A01 T02810165  RH  049%=      5-min Rain = 0
KCR2 260333Z 16012KT 28/17 A3001 RMK A01 T02810166  RH  050%=      5-min Rain = 0
KCR2 260334Z 16013G18KT 28/17 A3001 RMK A01 T02800165  RH  050%=      5-min Rain = 0
KCR2 260335Z 15012KT 28/17 A3001 RMK A01 T02810166  RH  050%=      5-min Rain = 0
KCR2 260336Z 16014KT 28/17 A3001 RMK A01 T02800166  RH  050%=      5-min Rain = 0
KCR2 260337Z 16014KT 28/17 A3001 RMK A01 T02800166  RH  050%=      5-min Rain = 0
KCR2 260338Z 15013KT 28/17 A3001 RMK A01 T02800166  RH  050%=      5-min Rain = 0
KCR2 260339Z 16011KT 28/17 A3001 RMK A01 T02800166  RH  050%=      5-min Rain = 0
KCR2 260340Z 16012KT 28/17 A3001 RMK A01 T02800166  RH  050%=      5-min Rain = 0
KCR2 260341Z 15013KT 28/17 A3001 RMK A01 T02790166  RH  050%=      5-min Rain = 0
KCR2 260342Z 16015KT 28/17 A3001 RMK A01 T02790166  RH  050%=      5-min Rain = 0
KCR2 260343Z 16016KT 28/17 A3001 RMK A01 T02790167  RH  050%=      5-min Rain = 0
KCR2 260344Z 16013KT 28/17 A3001 RMK A01 T02790166  RH  050%=      5-min Rain = 0
KCR2 260345Z 15010KT 28/17 A3002 RMK A01 T02790167  RH  050%=      5-min Rain = 0
KCR2 260346Z 16010KT 28/17 A3002 RMK A01 T02780166  RH  051%=      5-min Rain = 0
KCR2 260347Z 16010KT 28/17 A3002 RMK A01 T02770166  RH  051%=      5-min Rain = 0
KCR2 260348Z 16012KT 28/17 A3002 RMK A01 T02770166  RH  051%=      5-min Rain = 0
KCR2 260349Z 15015KT 28/17 A3002 RMK A01 T02770167  RH  051%=      5-min Rain = 0
KCR2 260350Z 16014KT 28/17 A3002 RMK A01 T02770167  RH  051%=      5-min Rain = 0
KCR2 260351Z 15013KT 28/17 A3002 RMK A01 T02770167  RH  051%=      5-min Rain = 0
KCR2 260352Z 15014KT 28/17 A3002 RMK A01 T02770168  RH  051%=      5-min Rain = 0
KCR2 260353Z 16014G19KT 28/17 A3002 RMK A01 T02770168  RH  052%=      5-min Rain = 0
KCR2 260354Z 16013KT 28/17 A3002 RMK A01 T02770168  RH  052%=      5-min Rain = 0
KCR2 260355Z 15013KT 28/17 A3002 RMK A01 T02760169  RH  052%=      5-min Rain = 0
KCR2 260356Z 15012KT 28/17 A3002 RMK A01 T02760169  RH  052%=      5-min Rain = 0
KCR2 260357Z 15012KT 28/17 A3002 RMK A01 T02760169  RH  052%=      5-min Rain = 0
KCR2 260358Z 16014KT 28/17 A3002 RMK A01 T02760169  RH  052%=      5-min Rain = 0
KCR2 260359Z 16013G18KT 28/17 A3003 RMK A01 T02760169  RH  052%=      5-min Rain = 0
KCR2 260400Z 15017KT 28/17 A3003 RMK A01 T02750169  RH  052%=      5-min Rain = 0
KCR2 260401Z 15013KT 28/17 A3003 RMK A01 T02760170  RH  052%=      5-min Rain = 0
KCR2 260402Z 15013KT 28/17 A3003 RMK A01 T02750170  RH  052%=      5-min Rain = 0
KCR2 260403Z 15018KT 28/17 A3003 RMK A01 T02750170  RH  053%=      5-min Rain = 0
KCR2 260404Z 15017KT 28/17 A3003 RMK A01 T02750170  RH  053%=      5-min Rain = 0
KCR2 260405Z 16013KT 28/17 A3003 RMK A01 T02750170  RH  053%=      5-min Rain = 0
KCR2 260406Z 16015KT 27/17 A3003 RMK A01 T02740171  RH  053%=      5-min Rain = 0
KCR2 260407Z 16015KT 28/17 A3003 RMK A01 T02750171  RH  053%=      5-min Rain = 0
KCR2 260408Z 16015G20KT 27/17 A3003 RMK A01 T02740171  RH  053%=      5-min Rain = 0
KCR2 260409Z 17016KT 27/17 A3003 RMK A01 T02740171  RH  053%=      5-min Rain = 0
KCR2 260410Z 16014KT 27/17 A3003 RMK A01 T02740172  RH  054%=      5-min Rain = 0
KCR2 260411Z 16015KT 27/17 A3003 RMK A01 T02740172  RH  054%=      5-min Rain = 0
KCR2 260412Z 15014KT 27/17 A3003 RMK A01 T02730172  RH  054%=      5-min Rain = 0
KCR2 260413Z 16014G19KT 27/17 A3003 RMK A01 T02730172  RH  054%=      5-min Rain = 0
KCR2 260414Z 16014KT 27/17 A3003 RMK A01 T02730172  RH  054%=      5-min Rain = 0
KCR2 260415Z 15016KT 27/17 A3003 RMK A01 T02730172  RH  054%=      5-min Rain = 0
KCR2 260416Z 16016KT 27/17 A3004 RMK A01 T02720172  RH  054%=      5-min Rain = 0
KCR2 260417Z 16018KT 27/17 A3004 RMK A01 T02720173  RH  055%=      5-min Rain = 0
KCR2 260418Z 16016KT 27/17 A3004 RMK A01 T02730174  RH  055%=      5-min Rain = 0
KCR2 260419Z 15012KT 27/17 A3004 RMK A01 T02720173  RH  055%=      5-min Rain = 0
KCR2 260420Z 15012KT 27/17 A3004 RMK A01 T02720173  RH  055%=      5-min Rain = 0
KCR2 260421Z 15016G21KT 27/17 A3004 RMK A01 T02710173  RH  055%=      5-min Rain = 0
KCR2 260422Z 15014KT 27/17 A3004 RMK A01 T02710174  RH  055%=      5-min Rain = 0
KCR2 260423Z 16017KT 27/17 A3004 RMK A01 T02710174  RH  055%=      5-min Rain = 0
KCR2 260424Z 16016KT 27/17 A3004 RMK A01 T02710174  RH  055%=      5-min Rain = 0
KCR2 260425Z 16014KT 27/17 A3004 RMK A01 T02710174  RH  055%=      5-min Rain = 0
KCR2 260426Z 16013KT 27/17 A3004 RMK A01 T02700174  RH  056%=      5-min Rain = 0
KCR2 260427Z 15011KT 27/17 A3004 RMK A01 T02700174  RH  056%=      5-min Rain = 0
KCR2 260428Z 16013KT 27/17 A3004 RMK A01 T02700174  RH  056%=      5-min Rain = 0
KCR2 260429Z 16012KT 27/17 A3004 RMK A01 T02700174  RH  056%=      5-min Rain = 0
KCR2 260430Z 15012KT 27/17 A3004 RMK A01 T02700174  RH  056%=      5-min Rain = 0
KCR2 260431Z 15010KT 27/17 A3004 RMK A01 T02700174  RH  056%=      5-min Rain = 0
KCR2 260432Z 15013KT 27/17 A3004 RMK A01 T02690174  RH  056%=      5-min Rain = 0
KCR2 260433Z 15014KT 27/17 A3004 RMK A01 T02690174  RH  056%=      5-min Rain = 0
KCR2 260434Z 15015KT 27/17 A3004 RMK A01 T02690174  RH  056%=      5-min Rain = 0
KCR2 260435Z 16015KT 27/17 A3004 RMK A01 T02680174  RH  056%=      5-min Rain = 0
KCR2 260436Z 15011KT 27/17 A3004 RMK A01 T02690174  RH  056%=      5-min Rain = 0
KCR2 260437Z 15011KT 27/17 A3004 RMK A01 T02680174  RH  056%=      5-min Rain = 0
KCR2 260438Z 15012KT 27/17 A3004 RMK A01 T02680174  RH  056%=      5-min Rain = 0
KCR2 260439Z 15011KT 27/17 A3004 RMK A01 T02680174  RH  056%=      5-min Rain = 0
KCR2 260440Z 15010KT 27/17 A3004 RMK A01 T02680174  RH  056%=      5-min Rain = 0
KCR2 260441Z 15009KT 27/17 A3004 RMK A01 T02670174  RH  057%=      5-min Rain = 0
KCR2 260442Z 15011KT 27/17 A3005 RMK A01 T02660173  RH  057%=      5-min Rain = 0
KCR2 260443Z 15013KT 27/17 A3005 RMK A01 T02660173  RH  057%=      5-min Rain = 0
KCR2 260444Z 15012KT 27/17 A3004 RMK A01 T02660173  RH  057%=      5-min Rain = 0
KCR2 260445Z 15014KT 27/17 A3004 RMK A01 T02660172  RH  056%=      5-min Rain = 0
KCR2 260446Z 14012KT 27/17 A3004 RMK A01 T02670173  RH  056%=      5-min Rain = 0
KCR2 260447Z 15012KT 27/17 A3005 RMK A01 T02660173  RH  056%=      5-min Rain = 0
KCR2 260448Z 15010KT 27/17 A3005 RMK A01 T02660173  RH  056%=      5-min Rain = 0
KCR2 260449Z 15009KT 27/17 A3005 RMK A01 T02660172  RH  056%=      5-min Rain = 0
KCR2 260450Z 14012KT 27/17 A3005 RMK A01 T02650172  RH  057%=      5-min Rain = 0
KCR2 260451Z 15012KT 27/17 A3005 RMK A01 T02650172  RH  057%=      5-min Rain = 0
KCR2 260452Z 14008KT 27/17 A3005 RMK A01 T02650172  RH  057%=      5-min Rain = 0
KCR2 260453Z 14008KT 26/17 A3005 RMK A01 T02640172  RH  057%=      5-min Rain = 0
KCR2 260454Z 14010KT 26/17 A3005 RMK A01 T02640172  RH  057%=      5-min Rain = 0
KCR2 260455Z 14010KT 26/17 A3005 RMK A01 T02630171  RH  057%=      5-min Rain = 0
KCR2 260456Z 14011KT 26/17 A3005 RMK A01 T02630172  RH  057%=      5-min Rain = 0
KCR2 260457Z 14011KT 26/17 A3005 RMK A01 T02630171  RH  057%=      5-min Rain = 0
KCR2 260458Z 15013KT 26/17 A3005 RMK A01 T02630171  RH  057%=      5-min Rain = 0
KCR2 260459Z 14010KT 26/17 A3005 RMK A01 T02630171  RH  057%=      5-min Rain = 0

Page generated in 0.1282 seconds.